<?xml version="1.0" encoding="UTF-8" standalone="no" ?><gpx xmlns="http://www.topografix.com/GPX/1/1" xmlns:gpxx="http://www.garmin.com/xmlschemas/GpxExtensions/v3" xmlns:wptx1="http://www.garmin.com/xmlschemas/WaypointExtension/v1" xmlns:gpxtpx="http://www.garmin.com/xmlschemas/TrackPointExtension/v1" creator="Dakota 20" version="1.1" xmlns:xsi="http://www.w3.org/2001/XMLSchema-instance" xsi:schemaLocation="http://www.topografix.com/GPX/1/1 http://www.topografix.com/GPX/1/1/gpx.xsd http://www.garmin.com/xmlschemas/GpxExtensions/v3 http://www8.garmin.com/xmlschemas/GpxExtensionsv3.xsd http://www.garmin.com/xmlschemas/WaypointExtension/v1 http://www8.garmin.com/xmlschemas/WaypointExtensionv1.xsd http://www.garmin.com/xmlschemas/TrackPointExtension/v1 http://www.garmin.com/xmlschemas/TrackPointExtensionv1.xsd"><metadata><link href="http://www.garmin.com"><text>Garmin International</text></link><time>2017-06-14T16:05:48Z</time></metadata><trk><name>Current Track: 14 JUN 2017 09:53</name><extensions><gpxx:TrackExtension><gpxx:DisplayColor>Cyan</gpxx:DisplayColor></gpxx:TrackExtension></extensions><trkseg><trkpt lat="52.0697617438" lon="-2.1147361491"><ele>33.78</ele><time>2017-06-14T08:53:34Z</time></trkpt><trkpt lat="52.0697697066" lon="-2.1147180442"><ele>36.67</ele><time>2017-06-14T08:53:43Z</time></trkpt><trkpt lat="52.0697818603" lon="-2.1147030406"><ele>33.30</ele><time>2017-06-14T08:53:45Z</time></trkpt><trkpt lat="52.0697879791" lon="-2.1146953292"><ele>33.30</ele><time>2017-06-14T08:53:46Z</time></trkpt><trkpt lat="52.0697933435" lon="-2.1146993525"><ele>36.67</ele><time>2017-06-14T08:53:57Z</time></trkpt><trkpt lat="52.0697940141" lon="-2.1146986820"><ele>32.34</ele><time>2017-06-14T08:53:58Z</time></trkpt><trkpt lat="52.0698097721" lon="-2.1146985982"><ele>34.74</ele><time>2017-06-14T08:54:02Z</time></trkpt><trkpt lat="52.0698251948" lon="-2.1147006936"><ele>31.38</ele><time>2017-06-14T08:54:05Z</time></trkpt><trkpt lat="52.0698298048" lon="-2.1146999393"><ele>34.74</ele><time>2017-06-14T08:54:06Z</time></trkpt><trkpt lat="52.0698422939" lon="-2.1147020347"><ele>31.38</ele><time>2017-06-14T08:54:28Z</time></trkpt><trkpt lat="52.0698453952" lon="-2.1146981791"><ele>33.30</ele><time>2017-06-14T08:54:30Z</time></trkpt><trkpt lat="52.0698543638" lon="-2.1146949101"><ele>32.34</ele><time>2017-06-14T08:54:37Z</time></trkpt><trkpt lat="52.0698808506" lon="-2.1147086564"><ele>34.26</ele><time>2017-06-14T08:54:39Z</time></trkpt><trkpt lat="52.0698756538" lon="-2.1147123445"><ele>33.30</ele><time>2017-06-14T08:54:56Z</time></trkpt><trkpt lat="52.0698785037" lon="-2.1147126798"><ele>37.15</ele><time>2017-06-14T08:55:01Z</time></trkpt><trkpt lat="52.0698834490" lon="-2.1147092432"><ele>30.90</ele><time>2017-06-14T08:55:02Z</time></trkpt><trkpt lat="52.0698875561" lon="-2.1147054713"><ele>34.26</ele><time>2017-06-14T08:55:03Z</time></trkpt><trkpt lat="52.0698993746" lon="-2.1147212293"><ele>30.90</ele><time>2017-06-14T08:55:08Z</time></trkpt><trkpt lat="52.0698996261" lon="-2.1147218999"><ele>34.26</ele><time>2017-06-14T08:55:09Z</time></trkpt><trkpt lat="52.0699039847" lon="-2.1147270128"><ele>29.46</ele><time>2017-06-14T08:55:10Z</time></trkpt><trkpt lat="52.0699047390" lon="-2.1147275157"><ele>32.82</ele><time>2017-06-14T08:55:11Z</time></trkpt><trkpt lat="52.0699113607" lon="-2.1147271805"><ele>36.67</ele><time>2017-06-14T08:55:12Z</time></trkpt><trkpt lat="52.0699153841" lon="-2.1147255041"><ele>34.26</ele><time>2017-06-14T08:55:13Z</time></trkpt><trkpt lat="52.0699286275" lon="-2.1147296112"><ele>32.82</ele><time>2017-06-14T08:55:15Z</time></trkpt><trkpt lat="52.0699437987" lon="-2.1147303656"><ele>33.78</ele><time>2017-06-14T08:55:22Z</time></trkpt><trkpt lat="52.0699479897" lon="-2.1147234924"><ele>30.42</ele><time>2017-06-14T08:55:23Z</time></trkpt><trkpt lat="52.0699487440" lon="-2.1147193853"><ele>34.26</ele><time>2017-06-14T08:55:24Z</time></trkpt><trkpt lat="52.0699459780" lon="-2.1147184633"><ele>29.94</ele><time>2017-06-14T08:55:25Z</time></trkpt><trkpt lat="52.0699489117" lon="-2.1147192176"><ele>37.15</ele><time>2017-06-14T08:55:26Z</time></trkpt><trkpt lat="52.0699494984" lon="-2.1147185471"><ele>33.78</ele><time>2017-06-14T08:55:27Z</time></trkpt><trkpt lat="52.0699774101" lon="-2.1147323772"><ele>36.67</ele><time>2017-06-14T08:55:32Z</time></trkpt><trkpt lat="52.0699800085" lon="-2.1147335507"><ele>30.90</ele><time>2017-06-14T08:55:33Z</time></trkpt><trkpt lat="52.0699805114" lon="-2.1147347242"><ele>33.78</ele><time>2017-06-14T08:55:34Z</time></trkpt><trkpt lat="52.0699842833" lon="-2.1147291083"><ele>28.98</ele><time>2017-06-14T08:55:38Z</time></trkpt><trkpt lat="52.0699849539" lon="-2.1147286054"><ele>35.71</ele><time>2017-06-14T08:55:39Z</time></trkpt><trkpt lat="52.0699910726" lon="-2.1147143561"><ele>29.94</ele><time>2017-06-14T08:55:40Z</time></trkpt><trkpt lat="52.0699979458" lon="-2.1147006098"><ele>34.74</ele><time>2017-06-14T08:55:41Z</time></trkpt><trkpt lat="52.0700316411" lon="-2.1146848518"><ele>35.71</ele><time>2017-06-14T08:55:45Z</time></trkpt><trkpt lat="52.0700392686" lon="-2.1146915574"><ele>34.26</ele><time>2017-06-14T08:55:46Z</time></trkpt><trkpt lat="52.0701119397" lon="-2.1147708502"><ele>32.34</ele><time>2017-06-14T08:55:57Z</time></trkpt><trkpt lat="52.0701309666" lon="-2.1147835068"><ele>35.23</ele><time>2017-06-14T08:55:59Z</time></trkpt><trkpt lat="52.0701387618" lon="-2.1147887874"><ele>30.42</ele><time>2017-06-14T08:56:00Z</time></trkpt><trkpt lat="52.0701706968" lon="-2.1148019470"><ele>37.15</ele><time>2017-06-14T08:56:03Z</time></trkpt><trkpt lat="52.0702053141" lon="-2.1148242429"><ele>32.82</ele><time>2017-06-14T08:56:06Z</time></trkpt><trkpt lat="52.0702406857" lon="-2.1148342174"><ele>35.71</ele><time>2017-06-14T08:56:09Z</time></trkpt><trkpt lat="52.0702627301" lon="-2.1148511488"><ele>31.38</ele><time>2017-06-14T08:56:11Z</time></trkpt><trkpt lat="52.0702745486" lon="-2.1148604527"><ele>32.82</ele><time>2017-06-14T08:56:12Z</time></trkpt><trkpt lat="52.0702972636" lon="-2.1148676611"><ele>36.19</ele><time>2017-06-14T08:56:14Z</time></trkpt><trkpt lat="52.0703264326" lon="-2.1148686670"><ele>33.30</ele><time>2017-06-14T08:56:17Z</time></trkpt><trkpt lat="52.0703690965" lon="-2.1148946509"><ele>36.67</ele><time>2017-06-14T08:56:21Z</time></trkpt><trkpt lat="52.0703796577" lon="-2.1148956567"><ele>32.34</ele><time>2017-06-14T08:56:22Z</time></trkpt><trkpt lat="52.0703882072" lon="-2.1149052121"><ele>32.34</ele><time>2017-06-14T08:56:23Z</time></trkpt><trkpt lat="52.0704172086" lon="-2.1149472054"><ele>36.67</ele><time>2017-06-14T08:56:26Z</time></trkpt><trkpt lat="52.0704281051" lon="-2.1149615385"><ele>31.86</ele><time>2017-06-14T08:56:28Z</time></trkpt><trkpt lat="52.0704548433" lon="-2.1149679087"><ele>33.30</ele><time>2017-06-14T08:56:31Z</time></trkpt><trkpt lat="52.0704761334" lon="-2.1149731055"><ele>37.63</ele><time>2017-06-14T08:56:33Z</time></trkpt><trkpt lat="52.0704848506" lon="-2.1149783861"><ele>33.78</ele><time>2017-06-14T08:56:34Z</time></trkpt><trkpt lat="52.0704914723" lon="-2.1149833314"><ele>30.90</ele><time>2017-06-14T08:56:35Z</time></trkpt><trkpt lat="52.0705125947" lon="-2.1149928030"><ele>34.26</ele><time>2017-06-14T08:56:37Z</time></trkpt><trkpt lat="52.0705529954" lon="-2.1150143445"><ele>32.82</ele><time>2017-06-14T08:56:41Z</time></trkpt><trkpt lat="52.0706100762" lon="-2.1150217205"><ele>35.23</ele><time>2017-06-14T08:56:47Z</time></trkpt><trkpt lat="52.0706175361" lon="-2.1150254086"><ele>31.38</ele><time>2017-06-14T08:56:48Z</time></trkpt><trkpt lat="52.0706272591" lon="-2.1150290966"><ele>33.30</ele><time>2017-06-14T08:56:49Z</time></trkpt><trkpt lat="52.0706463698" lon="-2.1150395740"><ele>37.15</ele><time>2017-06-14T08:56:51Z</time></trkpt><trkpt lat="52.0706624631" lon="-2.1150497161"><ele>31.86</ele><time>2017-06-14T08:56:53Z</time></trkpt><trkpt lat="52.0706721023" lon="-2.1150563378"><ele>33.30</ele><time>2017-06-14T08:56:54Z</time></trkpt><trkpt lat="52.0706884470" lon="-2.1150589362"><ele>37.63</ele><time>2017-06-14T08:56:56Z</time></trkpt><trkpt lat="52.0706985053" lon="-2.1150583494"><ele>34.26</ele><time>2017-06-14T08:56:57Z</time></trkpt><trkpt lat="52.0707302727" lon="-2.1150804777"><ele>31.38</ele><time>2017-06-14T08:57:00Z</time></trkpt><trkpt lat="52.0707509760" lon="-2.1150936373"><ele>35.23</ele><time>2017-06-14T08:57:02Z</time></trkpt><trkpt lat="52.0707793068" lon="-2.1151083894"><ele>33.30</ele><time>2017-06-14T08:57:05Z</time></trkpt><trkpt lat="52.0707949810" lon="-2.1151186153"><ele>36.19</ele><time>2017-06-14T08:57:07Z</time></trkpt><trkpt lat="52.0708347950" lon="-2.1151308529"><ele>31.38</ele><time>2017-06-14T08:57:11Z</time></trkpt><trkpt lat="52.0708443504" lon="-2.1151347924"><ele>32.82</ele><time>2017-06-14T08:57:12Z</time></trkpt><trkpt lat="52.0708518941" lon="-2.1151383966"><ele>35.71</ele><time>2017-06-14T08:57:13Z</time></trkpt><trkpt lat="52.0708813984" lon="-2.1151489578"><ele>31.86</ele><time>2017-06-14T08:57:16Z</time></trkpt><trkpt lat="52.0708889421" lon="-2.1151587646"><ele>33.30</ele><time>2017-06-14T08:57:17Z</time></trkpt><trkpt lat="52.0709045324" lon="-2.1151743550"><ele>35.71</ele><time>2017-06-14T08:57:19Z</time></trkpt><trkpt lat="52.0709298458" lon="-2.1151886042"><ele>36.67</ele><time>2017-06-14T08:57:22Z</time></trkpt><trkpt lat="52.0709347911" lon="-2.1151866764"><ele>32.34</ele><time>2017-06-14T08:57:23Z</time></trkpt><trkpt lat="52.0709418319" lon="-2.1151896100"><ele>33.78</ele><time>2017-06-14T08:57:24Z</time></trkpt><trkpt lat="52.0709508844" lon="-2.1151972376"><ele>34.74</ele><time>2017-06-14T08:57:25Z</time></trkpt><trkpt lat="52.0709691569" lon="-2.1152145881"><ele>35.71</ele><time>2017-06-14T08:57:27Z</time></trkpt><trkpt lat="52.0709704142" lon="-2.1152139176"><ele>32.34</ele><time>2017-06-14T08:57:28Z</time></trkpt><trkpt lat="52.0709941350" lon="-2.1152313519"><ele>35.23</ele><time>2017-06-14T08:57:30Z</time></trkpt><trkpt lat="52.0710580051" lon="-2.1152497921"><ele>32.34</ele><time>2017-06-14T08:57:35Z</time></trkpt><trkpt lat="52.0710715000" lon="-2.1152549051"><ele>33.78</ele><time>2017-06-14T08:57:36Z</time></trkpt><trkpt lat="52.0710820612" lon="-2.1152595989"><ele>34.74</ele><time>2017-06-14T08:57:37Z</time></trkpt><trkpt lat="52.0711004175" lon="-2.1152756084"><ele>36.19</ele><time>2017-06-14T08:57:39Z</time></trkpt><trkpt lat="52.0711081289" lon="-2.1152830683"><ele>33.78</ele><time>2017-06-14T08:57:40Z</time></trkpt><trkpt lat="52.0711288322" lon="-2.1153013408"><ele>34.26</ele><time>2017-06-14T08:57:42Z</time></trkpt><trkpt lat="52.0712054428" lon="-2.1153836511"><ele>33.30</ele><time>2017-06-14T08:57:49Z</time></trkpt><trkpt lat="52.0712356176" lon="-2.1153984871"><ele>34.74</ele><time>2017-06-14T08:57:52Z</time></trkpt><trkpt lat="52.0712425746" lon="-2.1154020913"><ele>31.86</ele><time>2017-06-14T08:57:53Z</time></trkpt><trkpt lat="52.0712516271" lon="-2.1154087968"><ele>33.78</ele><time>2017-06-14T08:57:54Z</time></trkpt><trkpt lat="52.0712957159" lon="-2.1154115628"><ele>37.15</ele><time>2017-06-14T08:57:58Z</time></trkpt><trkpt lat="52.0713315904" lon="-2.1154023428"><ele>33.78</ele><time>2017-06-14T08:58:01Z</time></trkpt><trkpt lat="52.0713524614" lon="-2.1154042706"><ele>38.59</ele><time>2017-06-14T08:58:03Z</time></trkpt><trkpt lat="52.0713623520" lon="-2.1153985709"><ele>32.82</ele><time>2017-06-14T08:58:04Z</time></trkpt><trkpt lat="52.0713722426" lon="-2.1154004987"><ele>33.78</ele><time>2017-06-14T08:58:05Z</time></trkpt><trkpt lat="52.0713843964" lon="-2.1154023428"><ele>37.15</ele><time>2017-06-14T08:58:07Z</time></trkpt><trkpt lat="52.0714584086" lon="-2.1154310927"><ele>33.30</ele><time>2017-06-14T08:58:16Z</time></trkpt><trkpt lat="52.0714978874" lon="-2.1154576633"><ele>34.26</ele><time>2017-06-14T08:58:21Z</time></trkpt><trkpt lat="52.0715925191" lon="-2.1154645365"><ele>35.71</ele><time>2017-06-14T08:58:30Z</time></trkpt><trkpt lat="52.0716015715" lon="-2.1154612675"><ele>31.86</ele><time>2017-06-14T08:58:31Z</time></trkpt><trkpt lat="52.0716119651" lon="-2.1154598426"><ele>33.78</ele><time>2017-06-14T08:58:32Z</time></trkpt><trkpt lat="52.0717100333" lon="-2.1154838987"><ele>33.78</ele><time>2017-06-14T08:58:44Z</time></trkpt><trkpt lat="52.0717169065" lon="-2.1154872514"><ele>34.74</ele><time>2017-06-14T08:58:45Z</time></trkpt><trkpt lat="52.0717457402" lon="-2.1154901851"><ele>31.38</ele><time>2017-06-14T08:58:48Z</time></trkpt><trkpt lat="52.0717535354" lon="-2.1154916938"><ele>32.82</ele><time>2017-06-14T08:58:49Z</time></trkpt><trkpt lat="52.0717807766" lon="-2.1155035961"><ele>35.71</ele><time>2017-06-14T08:58:52Z</time></trkpt><trkpt lat="52.0717885718" lon="-2.1155065298"><ele>35.71</ele><time>2017-06-14T08:58:53Z</time></trkpt><trkpt lat="52.0717899129" lon="-2.1155075356"><ele>31.86</ele><time>2017-06-14T08:58:54Z</time></trkpt><trkpt lat="52.0717967022" lon="-2.1155137382"><ele>33.30</ele><time>2017-06-14T08:58:55Z</time></trkpt><trkpt lat="52.0718563814" lon="-2.1155072842"><ele>36.67</ele><time>2017-06-14T08:59:01Z</time></trkpt><trkpt lat="52.0718647633" lon="-2.1154969744"><ele>36.19</ele><time>2017-06-14T08:59:02Z</time></trkpt><trkpt lat="52.0718711335" lon="-2.1154864132"><ele>30.42</ele><time>2017-06-14T08:59:05Z</time></trkpt><trkpt lat="52.0718820300" lon="-2.1154845692"><ele>34.26</ele><time>2017-06-14T08:59:06Z</time></trkpt><trkpt lat="52.0718928427" lon="-2.1154803783"><ele>37.63</ele><time>2017-06-14T08:59:07Z</time></trkpt><trkpt lat="52.0719010569" lon="-2.1154766064"><ele>35.23</ele><time>2017-06-14T08:59:08Z</time></trkpt><trkpt lat="52.0719302259" lon="-2.1154699009"><ele>39.07</ele><time>2017-06-14T08:59:11Z</time></trkpt><trkpt lat="52.0719418768" lon="-2.1154699009"><ele>32.34</ele><time>2017-06-14T08:59:12Z</time></trkpt><trkpt lat="52.0719514322" lon="-2.1154703200"><ele>34.26</ele><time>2017-06-14T08:59:13Z</time></trkpt><trkpt lat="52.0719629992" lon="-2.1154697333"><ele>36.19</ele><time>2017-06-14T08:59:14Z</time></trkpt><trkpt lat="52.0720166434" lon="-2.1154636145"><ele>34.26</ele><time>2017-06-14T08:59:19Z</time></trkpt><trkpt lat="52.0720361732" lon="-2.1154670510"><ele>38.11</ele><time>2017-06-14T08:59:21Z</time></trkpt><trkpt lat="52.0720497519" lon="-2.1154740080"><ele>33.30</ele><time>2017-06-14T08:59:23Z</time></trkpt><trkpt lat="52.0720593072" lon="-2.1154773608"><ele>35.71</ele><time>2017-06-14T08:59:24Z</time></trkpt><trkpt lat="52.0720989536" lon="-2.1154875867"><ele>31.38</ele><time>2017-06-14T08:59:28Z</time></trkpt><trkpt lat="52.0721062459" lon="-2.1154883411"><ele>34.74</ele><time>2017-06-14T08:59:29Z</time></trkpt><trkpt lat="52.0721510053" lon="-2.1154878382"><ele>35.23</ele><time>2017-06-14T08:59:34Z</time></trkpt><trkpt lat="52.0721711218" lon="-2.1154908556"><ele>37.15</ele><time>2017-06-14T08:59:36Z</time></trkpt><trkpt lat="52.0721791685" lon="-2.1154865809"><ele>33.78</ele><time>2017-06-14T08:59:37Z</time></trkpt><trkpt lat="52.0721872151" lon="-2.1154823899"><ele>35.71</ele><time>2017-06-14T08:59:38Z</time></trkpt><trkpt lat="52.0722681005" lon="-2.1154755168"><ele>33.30</ele><time>2017-06-14T08:59:50Z</time></trkpt><trkpt lat="52.0722778235" lon="-2.1155200247"><ele>36.67</ele><time>2017-06-14T08:59:53Z</time></trkpt><trkpt lat="52.0722944196" lon="-2.1155640297"><ele>38.11</ele><time>2017-06-14T08:59:56Z</time></trkpt><trkpt lat="52.0723159611" lon="-2.1155746747"><ele>32.82</ele><time>2017-06-14T08:59:59Z</time></trkpt><trkpt lat="52.0723213255" lon="-2.1155737527"><ele>37.15</ele><time>2017-06-14T09:00:00Z</time></trkpt><trkpt lat="52.0723235887" lon="-2.1155770216"><ele>30.90</ele><time>2017-06-14T09:00:02Z</time></trkpt><trkpt lat="52.0723530930" lon="-2.1155687235"><ele>38.11</ele><time>2017-06-14T09:00:05Z</time></trkpt><trkpt lat="52.0723606367" lon="-2.1155673824"><ele>37.15</ele><time>2017-06-14T09:00:06Z</time></trkpt><trkpt lat="52.0723718684" lon="-2.1155641135"><ele>33.78</ele><time>2017-06-14T09:00:07Z</time></trkpt><trkpt lat="52.0723812561" lon="-2.1155589167"><ele>36.19</ele><time>2017-06-14T09:00:08Z</time></trkpt><trkpt lat="52.0724164601" lon="-2.1155605093"><ele>39.07</ele><time>2017-06-14T09:00:17Z</time></trkpt><trkpt lat="52.0724246744" lon="-2.1155608445"><ele>36.19</ele><time>2017-06-14T09:00:18Z</time></trkpt><trkpt lat="52.0724442881" lon="-2.1155457571"><ele>37.15</ele><time>2017-06-14T09:00:22Z</time></trkpt><trkpt lat="52.0724446233" lon="-2.1155455057"><ele>36.19</ele><time>2017-06-14T09:00:24Z</time></trkpt><trkpt lat="52.0724459644" lon="-2.1155470144"><ele>30.90</ele><time>2017-06-14T09:00:26Z</time></trkpt><trkpt lat="52.0724556036" lon="-2.1155480202"><ele>34.26</ele><time>2017-06-14T09:00:27Z</time></trkpt><trkpt lat="52.0724664163" lon="-2.1155496966"><ele>37.63</ele><time>2017-06-14T09:00:28Z</time></trkpt><trkpt lat="52.0724794921" lon="-2.1155517921"><ele>30.42</ele><time>2017-06-14T09:00:30Z</time></trkpt><trkpt lat="52.0724868681" lon="-2.1155539714"><ele>37.15</ele><time>2017-06-14T09:00:31Z</time></trkpt><trkpt lat="52.0725000277" lon="-2.1155595034"><ele>35.23</ele><time>2017-06-14T09:00:34Z</time></trkpt><trkpt lat="52.0725060627" lon="-2.1155549772"><ele>38.59</ele><time>2017-06-14T09:00:35Z</time></trkpt><trkpt lat="52.0725207310" lon="-2.1155516244"><ele>32.34</ele><time>2017-06-14T09:00:37Z</time></trkpt><trkpt lat="52.0725291967" lon="-2.1155527141"><ele>35.71</ele><time>2017-06-14T09:00:38Z</time></trkpt><trkpt lat="52.0725902170" lon="-2.1155569050"><ele>39.55</ele><time>2017-06-14T09:00:45Z</time></trkpt><trkpt lat="52.0725965034" lon="-2.1155605093"><ele>39.07</ele><time>2017-06-14T09:00:46Z</time></trkpt><trkpt lat="52.0726010296" lon="-2.1155631077"><ele>31.38</ele><time>2017-06-14T09:00:47Z</time></trkpt><trkpt lat="52.0726077352" lon="-2.1155633591"><ele>36.67</ele><time>2017-06-14T09:00:48Z</time></trkpt><trkpt lat="52.0726238284" lon="-2.1155603416"><ele>37.63</ele><time>2017-06-14T09:00:50Z</time></trkpt><trkpt lat="52.0726333838" lon="-2.1155590843"><ele>32.34</ele><time>2017-06-14T09:00:51Z</time></trkpt><trkpt lat="52.0726452023" lon="-2.1155587491"><ele>36.19</ele><time>2017-06-14T09:00:52Z</time></trkpt><trkpt lat="52.0726704318" lon="-2.1155524626"><ele>39.07</ele><time>2017-06-14T09:00:54Z</time></trkpt><trkpt lat="52.0726825856" lon="-2.1155534685"><ele>30.42</ele><time>2017-06-14T09:00:55Z</time></trkpt><trkpt lat="52.0727230702" lon="-2.1155566536"><ele>38.59</ele><time>2017-06-14T09:00:59Z</time></trkpt><trkpt lat="52.0727306139" lon="-2.1155551448"><ele>32.82</ele><time>2017-06-14T09:01:00Z</time></trkpt><trkpt lat="52.0727400016" lon="-2.1155523788"><ele>35.23</ele><time>2017-06-14T09:01:01Z</time></trkpt><trkpt lat="52.0727595314" lon="-2.1155420691"><ele>39.07</ele><time>2017-06-14T09:01:03Z</time></trkpt><trkpt lat="52.0727670752" lon="-2.1155390516"><ele>33.78</ele><time>2017-06-14T09:01:04Z</time></trkpt><trkpt lat="52.0727743674" lon="-2.1155367885"><ele>35.71</ele><time>2017-06-14T09:01:05Z</time></trkpt><trkpt lat="52.0727928914" lon="-2.1155322623"><ele>38.11</ele><time>2017-06-14T09:01:07Z</time></trkpt><trkpt lat="52.0728179533" lon="-2.1155319270"><ele>33.78</ele><time>2017-06-14T09:01:10Z</time></trkpt><trkpt lat="52.0728268381" lon="-2.1155351959"><ele>35.71</ele><time>2017-06-14T09:01:11Z</time></trkpt><trkpt lat="52.0728450269" lon="-2.1155467629"><ele>39.07</ele><time>2017-06-14T09:01:13Z</time></trkpt><trkpt lat="52.0728623774" lon="-2.1155471820"><ele>34.26</ele><time>2017-06-14T09:01:15Z</time></trkpt><trkpt lat="52.0728699211" lon="-2.1155465115"><ele>35.23</ele><time>2017-06-14T09:01:16Z</time></trkpt><trkpt lat="52.0728860144" lon="-2.1155471820"><ele>38.59</ele><time>2017-06-14T09:01:18Z</time></trkpt><trkpt lat="52.0729051251" lon="-2.1155514568"><ele>34.74</ele><time>2017-06-14T09:01:20Z</time></trkpt><trkpt lat="52.0729141776" lon="-2.1155531332"><ele>36.19</ele><time>2017-06-14T09:01:21Z</time></trkpt><trkpt lat="52.0729601942" lon="-2.1155711543"><ele>40.03</ele><time>2017-06-14T09:01:25Z</time></trkpt><trkpt lat="52.0729717612" lon="-2.1155766025"><ele>35.71</ele><time>2017-06-14T09:01:26Z</time></trkpt><trkpt lat="52.0730093960" lon="-2.1155883372"><ele>40.51</ele><time>2017-06-14T09:01:29Z</time></trkpt><trkpt lat="52.0730224717" lon="-2.1155924443"><ele>39.55</ele><time>2017-06-14T09:01:30Z</time></trkpt><trkpt lat="52.0730344579" lon="-2.1155933663"><ele>33.30</ele><time>2017-06-14T09:01:31Z</time></trkpt><trkpt lat="52.0730456058" lon="-2.1155915223"><ele>37.15</ele><time>2017-06-14T09:01:32Z</time></trkpt><trkpt lat="52.0730622020" lon="-2.1155400574"><ele>40.51</ele><time>2017-06-14T09:01:36Z</time></trkpt><trkpt lat="52.0730582625" lon="-2.1155227069"><ele>36.67</ele><time>2017-06-14T09:01:37Z</time></trkpt><trkpt lat="52.0730521437" lon="-2.1154911909"><ele>36.19</ele><time>2017-06-14T09:01:39Z</time></trkpt><trkpt lat="52.0730508026" lon="-2.1154621057"><ele>37.15</ele><time>2017-06-14T09:01:41Z</time></trkpt><trkpt lat="52.0730486233" lon="-2.1154512092"><ele>40.99</ele><time>2017-06-14T09:01:45Z</time></trkpt><trkpt lat="52.0730490424" lon="-2.1154507902"><ele>37.63</ele><time>2017-06-14T09:01:47Z</time></trkpt><trkpt lat="52.0730495453" lon="-2.1154507063"><ele>37.63</ele><time>2017-06-14T09:01:48Z</time></trkpt><trkpt lat="52.0730487071" lon="-2.1154523827"><ele>35.23</ele><time>2017-06-14T09:02:11Z</time></trkpt><trkpt lat="52.0730513893" lon="-2.1154667996"><ele>38.59</ele><time>2017-06-14T09:02:12Z</time></trkpt><trkpt lat="52.0730944723" lon="-2.1155555639"><ele>34.74</ele><time>2017-06-14T09:02:17Z</time></trkpt><trkpt lat="52.0731013454" lon="-2.1155643649"><ele>34.74</ele><time>2017-06-14T09:02:18Z</time></trkpt><trkpt lat="52.0731255691" lon="-2.1155779436"><ele>36.67</ele><time>2017-06-14T09:02:21Z</time></trkpt><trkpt lat="52.0731603540" lon="-2.1155811287"><ele>34.26</ele><time>2017-06-14T09:02:24Z</time></trkpt><trkpt lat="52.0732124057" lon="-2.1155839786"><ele>38.11</ele><time>2017-06-14T09:02:28Z</time></trkpt><trkpt lat="52.0732263196" lon="-2.1155885886"><ele>37.63</ele><time>2017-06-14T09:02:29Z</time></trkpt><trkpt lat="52.0732606854" lon="-2.1155994851"><ele>39.55</ele><time>2017-06-14T09:02:31Z</time></trkpt><trkpt lat="52.0733602624" lon="-2.1156326775"><ele>39.07</ele><time>2017-06-14T09:02:37Z</time></trkpt><trkpt lat="52.0733818039" lon="-2.1156490222"><ele>36.67</ele><time>2017-06-14T09:02:39Z</time></trkpt><trkpt lat="52.0734046865" lon="-2.1156594157"><ele>34.26</ele><time>2017-06-14T09:02:41Z</time></trkpt><trkpt lat="52.0734838117" lon="-2.1156832203"><ele>36.67</ele><time>2017-06-14T09:02:46Z</time></trkpt><trkpt lat="52.0735258888" lon="-2.1156844776"><ele>42.92</ele><time>2017-06-14T09:02:49Z</time></trkpt><trkpt lat="52.0735388808" lon="-2.1156812087"><ele>36.19</ele><time>2017-06-14T09:02:50Z</time></trkpt><trkpt lat="52.0735523757" lon="-2.1156790294"><ele>36.19</ele><time>2017-06-14T09:02:51Z</time></trkpt><trkpt lat="52.0736030862" lon="-2.1156946197"><ele>39.55</ele><time>2017-06-14T09:02:55Z</time></trkpt><trkpt lat="52.0736351050" lon="-2.1157178376"><ele>36.19</ele><time>2017-06-14T09:02:58Z</time></trkpt><trkpt lat="52.0736566465" lon="-2.1157293208"><ele>34.74</ele><time>2017-06-14T09:03:00Z</time></trkpt><trkpt lat="52.0738625899" lon="-2.1157405525"><ele>36.67</ele><time>2017-06-14T09:03:17Z</time></trkpt><trkpt lat="52.0740280487" lon="-2.1157267224"><ele>36.67</ele><time>2017-06-14T09:03:30Z</time></trkpt><trkpt lat="52.0740956906" lon="-2.1157011576"><ele>37.15</ele><time>2017-06-14T09:03:35Z</time></trkpt><trkpt lat="52.0741780009" lon="-2.1156874113"><ele>37.15</ele><time>2017-06-14T09:03:42Z</time></trkpt><trkpt lat="52.0742000453" lon="-2.1156899258"><ele>34.74</ele><time>2017-06-14T09:03:44Z</time></trkpt><trkpt lat="52.0743701141" lon="-2.1156247985"><ele>36.19</ele><time>2017-06-14T09:03:57Z</time></trkpt><trkpt lat="52.0745506603" lon="-2.1155283228"><ele>36.67</ele><time>2017-06-14T09:04:11Z</time></trkpt><trkpt lat="52.0745988563" lon="-2.1155311726"><ele>37.15</ele><time>2017-06-14T09:04:15Z</time></trkpt><trkpt lat="52.0746576972" lon="-2.1155199409"><ele>36.19</ele><time>2017-06-14T09:04:19Z</time></trkpt><trkpt lat="52.0748244971" lon="-2.1154589206"><ele>36.19</ele><time>2017-06-14T09:04:32Z</time></trkpt><trkpt lat="52.0748524088" lon="-2.1154426597"><ele>36.67</ele><time>2017-06-14T09:04:34Z</time></trkpt><trkpt lat="52.0750047918" lon="-2.1153842378"><ele>36.19</ele><time>2017-06-14T09:04:49Z</time></trkpt><trkpt lat="52.0751969051" lon="-2.1153657977"><ele>36.19</ele><time>2017-06-14T09:05:06Z</time></trkpt><trkpt lat="52.0753409900" lon="-2.1153533086"><ele>35.23</ele><time>2017-06-14T09:05:18Z</time></trkpt><trkpt lat="52.0754732564" lon="-2.1153429989"><ele>35.71</ele><time>2017-06-14T09:05:30Z</time></trkpt><trkpt lat="52.0755802933" lon="-2.1153896861"><ele>35.23</ele><time>2017-06-14T09:05:43Z</time></trkpt><trkpt lat="52.0755864121" lon="-2.1153913625"><ele>34.74</ele><time>2017-06-14T09:05:44Z</time></trkpt><trkpt lat="52.0756186824" lon="-2.1153967269"><ele>34.74</ele><time>2017-06-14T09:05:47Z</time></trkpt><trkpt lat="52.0756578259" lon="-2.1154007502"><ele>34.74</ele><time>2017-06-14T09:06:00Z</time></trkpt><trkpt lat="52.0758286491" lon="-2.1154169273"><ele>34.26</ele><time>2017-06-14T09:06:16Z</time></trkpt><trkpt lat="52.0758841373" lon="-2.1154239681"><ele>33.30</ele><time>2017-06-14T09:06:22Z</time></trkpt><trkpt lat="52.0760130510" lon="-2.1154401451"><ele>33.30</ele><time>2017-06-14T09:06:34Z</time></trkpt><trkpt lat="52.0760719758" lon="-2.1154529694"><ele>31.86</ele><time>2017-06-14T09:06:40Z</time></trkpt><trkpt lat="52.0761883166" lon="-2.1154558193"><ele>30.90</ele><time>2017-06-14T09:06:53Z</time></trkpt><trkpt lat="52.0762927551" lon="-2.1154765226"><ele>29.94</ele><time>2017-06-14T09:07:07Z</time></trkpt><trkpt lat="52.0763296355" lon="-2.1154703200"><ele>29.94</ele><time>2017-06-14T09:07:12Z</time></trkpt><trkpt lat="52.0764492452" lon="-2.1154893469"><ele>28.98</ele><time>2017-06-14T09:07:25Z</time></trkpt><trkpt lat="52.0764938369" lon="-2.1154983994"><ele>26.57</ele><time>2017-06-14T09:07:30Z</time></trkpt><trkpt lat="52.0765665080" lon="-2.1155002434"><ele>28.02</ele><time>2017-06-14T09:07:37Z</time></trkpt><trkpt lat="52.0766716171" lon="-2.1155111399"><ele>26.57</ele><time>2017-06-14T09:07:49Z</time></trkpt><trkpt lat="52.0767088328" lon="-2.1154999081"><ele>25.61</ele><time>2017-06-14T09:08:00Z</time></trkpt><trkpt lat="52.0768063143" lon="-2.1154282428"><ele>23.69</ele><time>2017-06-14T09:08:11Z</time></trkpt><trkpt lat="52.0768250898" lon="-2.1154152509"><ele>26.09</ele><time>2017-06-14T09:08:13Z</time></trkpt><trkpt lat="52.0769423526" lon="-2.1153669711"><ele>26.09</ele><time>2017-06-14T09:08:23Z</time></trkpt><trkpt lat="52.0770146046" lon="-2.1153447591"><ele>24.17</ele><time>2017-06-14T09:08:30Z</time></trkpt><trkpt lat="52.0770357270" lon="-2.1153290849"><ele>25.13</ele><time>2017-06-14T09:08:32Z</time></trkpt><trkpt lat="52.0770709310" lon="-2.1153099742"><ele>23.69</ele><time>2017-06-14T09:08:36Z</time></trkpt><trkpt lat="52.0772404131" lon="-2.1151989978"><ele>25.13</ele><time>2017-06-14T09:08:54Z</time></trkpt><trkpt lat="52.0773860905" lon="-2.1151519753"><ele>21.77</ele><time>2017-06-14T09:09:07Z</time></trkpt><trkpt lat="52.0774699096" lon="-2.1151306853"><ele>21.77</ele><time>2017-06-14T09:09:16Z</time></trkpt><trkpt lat="52.0775689837" lon="-2.1151346248"><ele>22.25</ele><time>2017-06-14T09:09:27Z</time></trkpt><trkpt lat="52.0776202809" lon="-2.1151264105"><ele>19.84</ele><time>2017-06-14T09:09:32Z</time></trkpt><trkpt lat="52.0776353683" lon="-2.1151273325"><ele>23.21</ele><time>2017-06-14T09:09:34Z</time></trkpt><trkpt lat="52.0777503680" lon="-2.1151433419"><ele>22.25</ele><time>2017-06-14T09:09:46Z</time></trkpt><trkpt lat="52.0778656192" lon="-2.1151662245"><ele>20.32</ele><time>2017-06-14T09:09:58Z</time></trkpt><trkpt lat="52.0779782720" lon="-2.1151895262"><ele>22.25</ele><time>2017-06-14T09:10:08Z</time></trkpt><trkpt lat="52.0780708082" lon="-2.1152195334"><ele>21.29</ele><time>2017-06-14T09:10:18Z</time></trkpt><trkpt lat="52.0781371929" lon="-2.1152277477"><ele>20.81</ele><time>2017-06-14T09:10:25Z</time></trkpt><trkpt lat="52.0781682897" lon="-2.1152306814"><ele>22.25</ele><time>2017-06-14T09:10:28Z</time></trkpt><trkpt lat="52.0782959461" lon="-2.1152430866"><ele>21.77</ele><time>2017-06-14T09:10:41Z</time></trkpt><trkpt lat="52.0784149691" lon="-2.1152549889"><ele>20.32</ele><time>2017-06-14T09:10:54Z</time></trkpt><trkpt lat="52.0784702059" lon="-2.1152673941"><ele>21.77</ele><time>2017-06-14T09:11:09Z</time></trkpt><trkpt lat="52.0785969403" lon="-2.1152998321"><ele>22.25</ele><time>2017-06-14T09:11:22Z</time></trkpt><trkpt lat="52.0786091778" lon="-2.1152951382"><ele>21.29</ele><time>2017-06-14T09:11:41Z</time></trkpt><trkpt lat="52.0787046477" lon="-2.1152797155"><ele>20.81</ele><time>2017-06-14T09:11:55Z</time></trkpt><trkpt lat="52.0787685178" lon="-2.1152798831"><ele>21.77</ele><time>2017-06-14T09:12:02Z</time></trkpt><trkpt lat="52.0789613016" lon="-2.1151993331"><ele>21.29</ele><time>2017-06-14T09:12:23Z</time></trkpt><trkpt lat="52.0789880399" lon="-2.1151833236"><ele>17.92</ele><time>2017-06-14T09:12:26Z</time></trkpt><trkpt lat="52.0789929852" lon="-2.1151714213"><ele>22.25</ele><time>2017-06-14T09:12:27Z</time></trkpt><trkpt lat="52.0790609624" lon="-2.1150971577"><ele>20.81</ele><time>2017-06-14T09:12:35Z</time></trkpt><trkpt lat="52.0791290235" lon="-2.1150558349"><ele>23.21</ele><time>2017-06-14T09:12:48Z</time></trkpt><trkpt lat="52.0791454520" lon="-2.1150444355"><ele>20.81</ele><time>2017-06-14T09:12:50Z</time></trkpt><trkpt lat="52.0791608747" lon="-2.1150234807"><ele>22.73</ele><time>2017-06-14T09:12:52Z</time></trkpt><trkpt lat="52.0792037062" lon="-2.1149683278"><ele>20.32</ele><time>2017-06-14T09:12:57Z</time></trkpt><trkpt lat="52.0792183746" lon="-2.1149531566"><ele>24.17</ele><time>2017-06-14T09:12:59Z</time></trkpt><trkpt lat="52.0792245772" lon="-2.1149468701"><ele>23.69</ele><time>2017-06-14T09:13:00Z</time></trkpt><trkpt lat="52.0792364795" lon="-2.1149387397"><ele>22.25</ele><time>2017-06-14T09:13:02Z</time></trkpt><trkpt lat="52.0792955719" lon="-2.1148582734"><ele>22.73</ele><time>2017-06-14T09:13:18Z</time></trkpt><trkpt lat="52.0793790556" lon="-2.1147993486"><ele>22.73</ele><time>2017-06-14T09:13:36Z</time></trkpt><trkpt lat="52.0794440992" lon="-2.1147443634"><ele>19.36</ele><time>2017-06-14T09:13:42Z</time></trkpt><trkpt lat="52.0794901997" lon="-2.1146973409"><ele>21.77</ele><time>2017-06-14T09:13:55Z</time></trkpt><trkpt lat="52.0794811472" lon="-2.1146836784"><ele>20.81</ele><time>2017-06-14T09:14:14Z</time></trkpt><trkpt lat="52.0794414170" lon="-2.1146561019"><ele>21.77</ele><time>2017-06-14T09:14:29Z</time></trkpt><trkpt lat="52.0794407465" lon="-2.1146554314"><ele>19.36</ele><time>2017-06-14T09:14:30Z</time></trkpt><trkpt lat="52.0793877728" lon="-2.1146079060"><ele>21.29</ele><time>2017-06-14T09:14:36Z</time></trkpt><trkpt lat="52.0793043729" lon="-2.1144913137"><ele>19.84</ele><time>2017-06-14T09:14:51Z</time></trkpt><trkpt lat="52.0792822447" lon="-2.1144659165"><ele>19.84</ele><time>2017-06-14T09:14:53Z</time></trkpt><trkpt lat="52.0792383235" lon="-2.1144042257"><ele>19.84</ele><time>2017-06-14T09:14:58Z</time></trkpt><trkpt lat="52.0792217273" lon="-2.1143846959"><ele>21.29</ele><time>2017-06-14T09:15:00Z</time></trkpt><trkpt lat="52.0792068075" lon="-2.1143661719"><ele>19.84</ele><time>2017-06-14T09:15:02Z</time></trkpt><trkpt lat="52.0791769680" lon="-2.1143257711"><ele>21.77</ele><time>2017-06-14T09:15:05Z</time></trkpt><trkpt lat="52.0791705977" lon="-2.1143152937"><ele>20.81</ele><time>2017-06-14T09:15:06Z</time></trkpt><trkpt lat="52.0791523252" lon="-2.1142904833"><ele>19.84</ele><time>2017-06-14T09:15:08Z</time></trkpt><trkpt lat="52.0791037939" lon="-2.1142216679"><ele>18.88</ele><time>2017-06-14T09:15:15Z</time></trkpt><trkpt lat="52.0790685061" lon="-2.1141416207"><ele>20.32</ele><time>2017-06-14T09:15:31Z</time></trkpt><trkpt lat="52.0790193882" lon="-2.1140582208"><ele>21.29</ele><time>2017-06-14T09:15:43Z</time></trkpt><trkpt lat="52.0790155325" lon="-2.1140442230"><ele>20.81</ele><time>2017-06-14T09:15:44Z</time></trkpt><trkpt lat="52.0789903030" lon="-2.1139715519"><ele>20.32</ele><time>2017-06-14T09:15:50Z</time></trkpt><trkpt lat="52.0789667498" lon="-2.1139152255"><ele>18.88</ele><time>2017-06-14T09:15:54Z</time></trkpt><trkpt lat="52.0789488126" lon="-2.1138792671"><ele>20.81</ele><time>2017-06-14T09:15:57Z</time></trkpt><trkpt lat="52.0788943302" lon="-2.1137282252"><ele>21.77</ele><time>2017-06-14T09:16:09Z</time></trkpt><trkpt lat="52.0788837690" lon="-2.1136929374"><ele>21.29</ele><time>2017-06-14T09:16:12Z</time></trkpt><trkpt lat="52.0788765606" lon="-2.1136592422"><ele>21.29</ele><time>2017-06-14T09:16:14Z</time></trkpt><trkpt lat="52.0788198151" lon="-2.1134924423"><ele>21.29</ele><time>2017-06-14T09:16:27Z</time></trkpt><trkpt lat="52.0788157918" lon="-2.1134836413"><ele>17.92</ele><time>2017-06-14T09:16:28Z</time></trkpt><trkpt lat="52.0788121037" lon="-2.1134710684"><ele>19.84</ele><time>2017-06-14T09:16:29Z</time></trkpt><trkpt lat="52.0787479822" lon="-2.1133268997"><ele>19.36</ele><time>2017-06-14T09:16:41Z</time></trkpt><trkpt lat="52.0787287876" lon="-2.1132686455"><ele>17.44</ele><time>2017-06-14T09:16:45Z</time></trkpt><trkpt lat="52.0787199866" lon="-2.1132407337"><ele>21.77</ele><time>2017-06-14T09:16:47Z</time></trkpt><trkpt lat="52.0787140355" lon="-2.1130982414"><ele>20.32</ele><time>2017-06-14T09:16:58Z</time></trkpt><trkpt lat="52.0786968525" lon="-2.1130211279"><ele>20.81</ele><time>2017-06-14T09:17:05Z</time></trkpt><trkpt lat="52.0786997024" lon="-2.1129905339"><ele>20.32</ele><time>2017-06-14T09:17:07Z</time></trkpt><trkpt lat="52.0786925778" lon="-2.1129597723"><ele>21.29</ele><time>2017-06-14T09:17:09Z</time></trkpt><trkpt lat="52.0786772389" lon="-2.1129238978"><ele>21.29</ele><time>2017-06-14T09:17:13Z</time></trkpt><trkpt lat="52.0786512550" lon="-2.1127596963"><ele>19.36</ele><time>2017-06-14T09:17:24Z</time></trkpt><trkpt lat="52.0786246844" lon="-2.1125752944"><ele>21.77</ele><time>2017-06-14T09:17:37Z</time></trkpt><trkpt lat="52.0786220860" lon="-2.1125529986"><ele>19.36</ele><time>2017-06-14T09:17:39Z</time></trkpt><trkpt lat="52.0785769075" lon="-2.1123885456"><ele>18.40</ele><time>2017-06-14T09:17:52Z</time></trkpt><trkpt lat="52.0785676874" lon="-2.1123455465"><ele>21.29</ele><time>2017-06-14T09:17:58Z</time></trkpt><trkpt lat="52.0785615686" lon="-2.1123110969"><ele>19.36</ele><time>2017-06-14T09:18:00Z</time></trkpt><trkpt lat="52.0785199944" lon="-2.1121269464"><ele>20.32</ele><time>2017-06-14T09:18:13Z</time></trkpt><trkpt lat="52.0785146300" lon="-2.1120799240"><ele>19.36</ele><time>2017-06-14T09:18:16Z</time></trkpt><trkpt lat="52.0784814376" lon="-2.1119232662"><ele>20.81</ele><time>2017-06-14T09:18:26Z</time></trkpt><trkpt lat="52.0784488320" lon="-2.1117607411"><ele>19.36</ele><time>2017-06-14T09:18:39Z</time></trkpt><trkpt lat="52.0784451440" lon="-2.1117492579"><ele>19.36</ele><time>2017-06-14T09:18:40Z</time></trkpt><trkpt lat="52.0784220099" lon="-2.1116487589"><ele>20.32</ele><time>2017-06-14T09:18:48Z</time></trkpt><trkpt lat="52.0784120355" lon="-2.1116035804"><ele>20.32</ele><time>2017-06-14T09:18:51Z</time></trkpt><trkpt lat="52.0784040727" lon="-2.1115512773"><ele>21.29</ele><time>2017-06-14T09:18:54Z</time></trkpt><trkpt lat="52.0784008037" lon="-2.1115382854"><ele>20.32</ele><time>2017-06-14T09:18:55Z</time></trkpt><trkpt lat="52.0783851296" lon="-2.1114577353"><ele>18.40</ele><time>2017-06-14T09:19:01Z</time></trkpt><trkpt lat="52.0783775859" lon="-2.1114246268"><ele>20.81</ele><time>2017-06-14T09:19:03Z</time></trkpt><trkpt lat="52.0783634204" lon="-2.1113140695"><ele>19.84</ele><time>2017-06-14T09:19:10Z</time></trkpt><trkpt lat="52.0783364307" lon="-2.1112170909"><ele>19.84</ele><time>2017-06-14T09:19:27Z</time></trkpt><trkpt lat="52.0783290546" lon="-2.1111508738"><ele>19.84</ele><time>2017-06-14T09:19:37Z</time></trkpt><trkpt lat="52.0783090219" lon="-2.1109726746"><ele>18.40</ele><time>2017-06-14T09:19:48Z</time></trkpt><trkpt lat="52.0782962814" lon="-2.1109033562"><ele>20.81</ele><time>2017-06-14T09:19:52Z</time></trkpt><trkpt lat="52.0782730635" lon="-2.1106979158"><ele>19.36</ele><time>2017-06-14T09:20:05Z</time></trkpt><trkpt lat="52.0782676991" lon="-2.1106625441"><ele>20.32</ele><time>2017-06-14T09:20:07Z</time></trkpt><trkpt lat="52.0782659389" lon="-2.1106363926"><ele>18.40</ele><time>2017-06-14T09:20:09Z</time></trkpt><trkpt lat="52.0782563835" lon="-2.1105840895"><ele>18.40</ele><time>2017-06-14T09:20:13Z</time></trkpt><trkpt lat="52.0782455709" lon="-2.1105270926"><ele>19.36</ele><time>2017-06-14T09:20:16Z</time></trkpt><trkpt lat="52.0782417990" lon="-2.1104925591"><ele>19.84</ele><time>2017-06-14T09:20:18Z</time></trkpt><trkpt lat="52.0782180782" lon="-2.1103949938"><ele>20.32</ele><time>2017-06-14T09:20:25Z</time></trkpt><trkpt lat="52.0781799406" lon="-2.1101989411"><ele>19.84</ele><time>2017-06-14T09:20:38Z</time></trkpt><trkpt lat="52.0781777613" lon="-2.1101871226"><ele>18.40</ele><time>2017-06-14T09:20:39Z</time></trkpt><trkpt lat="52.0781692956" lon="-2.1101173852"><ele>19.36</ele><time>2017-06-14T09:20:44Z</time></trkpt><trkpt lat="52.0781573933" lon="-2.1100610588"><ele>18.40</ele><time>2017-06-14T09:20:48Z</time></trkpt><trkpt lat="52.0781490114" lon="-2.1100324765"><ele>20.32</ele><time>2017-06-14T09:20:50Z</time></trkpt><trkpt lat="52.0781214349" lon="-2.1098450571"><ele>20.32</ele><time>2017-06-14T09:21:03Z</time></trkpt><trkpt lat="52.0781130530" lon="-2.1097446419"><ele>17.92</ele><time>2017-06-14T09:21:10Z</time></trkpt><trkpt lat="52.0781088620" lon="-2.1097172331"><ele>21.29</ele><time>2017-06-14T09:21:12Z</time></trkpt><trkpt lat="52.0781083591" lon="-2.1096540336"><ele>18.40</ele><time>2017-06-14T09:21:17Z</time></trkpt><trkpt lat="52.0781045035" lon="-2.1096158121"><ele>18.40</ele><time>2017-06-14T09:21:20Z</time></trkpt><trkpt lat="52.0780979656" lon="-2.1095744893"><ele>21.29</ele><time>2017-06-14T09:21:23Z</time></trkpt><trkpt lat="52.0780962892" lon="-2.1095590666"><ele>17.44</ele><time>2017-06-14T09:21:24Z</time></trkpt><trkpt lat="52.0780953672" lon="-2.1095259581"><ele>21.29</ele><time>2017-06-14T09:21:26Z</time></trkpt><trkpt lat="52.0780954510" lon="-2.1094799414"><ele>17.92</ele><time>2017-06-14T09:21:30Z</time></trkpt><trkpt lat="52.0780951995" lon="-2.1094647702"><ele>18.88</ele><time>2017-06-14T09:21:31Z</time></trkpt><trkpt lat="52.0780879073" lon="-2.1094227768"><ele>19.84</ele><time>2017-06-14T09:21:34Z</time></trkpt><trkpt lat="52.0780835487" lon="-2.1093262173"><ele>17.92</ele><time>2017-06-14T09:21:41Z</time></trkpt><trkpt lat="52.0780806988" lon="-2.1092951205"><ele>20.32</ele><time>2017-06-14T09:21:43Z</time></trkpt><trkpt lat="52.0780781005" lon="-2.1092408057"><ele>21.77</ele><time>2017-06-14T09:21:47Z</time></trkpt><trkpt lat="52.0780770946" lon="-2.1092296578"><ele>17.44</ele><time>2017-06-14T09:21:48Z</time></trkpt><trkpt lat="52.0780634321" lon="-2.1090434957"><ele>21.29</ele><time>2017-06-14T09:22:00Z</time></trkpt><trkpt lat="52.0780652761" lon="-2.1090330184"><ele>17.44</ele><time>2017-06-14T09:22:01Z</time></trkpt><trkpt lat="52.0780645218" lon="-2.1090061963"><ele>21.29</ele><time>2017-06-14T09:22:03Z</time></trkpt><trkpt lat="52.0780551340" lon="-2.1088868380"><ele>17.92</ele><time>2017-06-14T09:22:12Z</time></trkpt><trkpt lat="52.0780464169" lon="-2.1087035257"><ele>17.92</ele><time>2017-06-14T09:22:25Z</time></trkpt><trkpt lat="52.0780462492" lon="-2.1086849179"><ele>18.40</ele><time>2017-06-14T09:22:26Z</time></trkpt><trkpt lat="52.0780452434" lon="-2.1085373964"><ele>20.81</ele><time>2017-06-14T09:22:37Z</time></trkpt><trkpt lat="52.0780475065" lon="-2.1085102390"><ele>17.44</ele><time>2017-06-14T09:22:39Z</time></trkpt><trkpt lat="52.0780473389" lon="-2.1084801480"><ele>20.81</ele><time>2017-06-14T09:22:41Z</time></trkpt><trkpt lat="52.0780548826" lon="-2.1084295213"><ele>17.92</ele><time>2017-06-14T09:22:45Z</time></trkpt><trkpt lat="52.0780547149" lon="-2.1083727758"><ele>19.84</ele><time>2017-06-14T09:22:49Z</time></trkpt><trkpt lat="52.0780739095" lon="-2.1082650684"><ele>17.92</ele><time>2017-06-14T09:22:57Z</time></trkpt><trkpt lat="52.0781096164" lon="-2.1080921497"><ele>19.84</ele><time>2017-06-14T09:23:10Z</time></trkpt><trkpt lat="52.0781363547" lon="-2.1079476457"><ele>19.84</ele><time>2017-06-14T09:23:20Z</time></trkpt><trkpt lat="52.0781392884" lon="-2.1079359110"><ele>17.92</ele><time>2017-06-14T09:23:21Z</time></trkpt><trkpt lat="52.0781658590" lon="-2.1078587137"><ele>20.81</ele><time>2017-06-14T09:23:27Z</time></trkpt><trkpt lat="52.0781805273" lon="-2.1078027226"><ele>17.44</ele><time>2017-06-14T09:23:32Z</time></trkpt><trkpt lat="52.0781920943" lon="-2.1077634115"><ele>16.96</ele><time>2017-06-14T09:23:35Z</time></trkpt><trkpt lat="52.0782008115" lon="-2.1077383496"><ele>21.77</ele><time>2017-06-14T09:23:37Z</time></trkpt><trkpt lat="52.0782045834" lon="-2.1077272855"><ele>17.92</ele><time>2017-06-14T09:23:38Z</time></trkpt><trkpt lat="52.0782386977" lon="-2.1076642536"><ele>21.29</ele><time>2017-06-14T09:23:44Z</time></trkpt><trkpt lat="52.0782459900" lon="-2.1076421253"><ele>18.88</ele><time>2017-06-14T09:23:46Z</time></trkpt><trkpt lat="52.0782626700" lon="-2.1076039877"><ele>18.88</ele><time>2017-06-14T09:23:49Z</time></trkpt><trkpt lat="52.0782837924" lon="-2.1075613238"><ele>16.96</ele><time>2017-06-14T09:23:53Z</time></trkpt><trkpt lat="52.0782942697" lon="-2.1075260360"><ele>17.92</ele><time>2017-06-14T09:23:56Z</time></trkpt><trkpt lat="52.0783044118" lon="-2.1074976213"><ele>20.32</ele><time>2017-06-14T09:23:58Z</time></trkpt><trkpt lat="52.0783198345" lon="-2.1074610762"><ele>20.81</ele><time>2017-06-14T09:24:01Z</time></trkpt><trkpt lat="52.0783241931" lon="-2.1074514370"><ele>17.44</ele><time>2017-06-14T09:24:02Z</time></trkpt><trkpt lat="52.0783274621" lon="-2.1074391156"><ele>17.92</ele><time>2017-06-14T09:24:03Z</time></trkpt><trkpt lat="52.0783299766" lon="-2.1074117906"><ele>21.29</ele><time>2017-06-14T09:24:05Z</time></trkpt><trkpt lat="52.0783325750" lon="-2.1074020676"><ele>16.48</ele><time>2017-06-14T09:24:06Z</time></trkpt><trkpt lat="52.0783363469" lon="-2.1073898301"><ele>19.84</ele><time>2017-06-14T09:24:07Z</time></trkpt><trkpt lat="52.0783448964" lon="-2.1073687077"><ele>17.44</ele><time>2017-06-14T09:24:09Z</time></trkpt><trkpt lat="52.0783809386" lon="-2.1072964557"><ele>18.40</ele><time>2017-06-14T09:24:16Z</time></trkpt><trkpt lat="52.0784246922" lon="-2.1071766783"><ele>18.40</ele><time>2017-06-14T09:24:26Z</time></trkpt><trkpt lat="52.0784531906" lon="-2.1070402209"><ele>16.48</ele><time>2017-06-14T09:24:36Z</time></trkpt><trkpt lat="52.0784582198" lon="-2.1070108004"><ele>21.29</ele><time>2017-06-14T09:24:38Z</time></trkpt><trkpt lat="52.0784572139" lon="-2.1069615148"><ele>16.96</ele><time>2017-06-14T09:24:42Z</time></trkpt><trkpt lat="52.0784614887" lon="-2.1069257241"><ele>20.81</ele><time>2017-06-14T09:24:45Z</time></trkpt><trkpt lat="52.0784628298" lon="-2.1069162525"><ele>16.96</ele><time>2017-06-14T09:24:46Z</time></trkpt><trkpt lat="52.0784629136" lon="-2.1068813000"><ele>21.29</ele><time>2017-06-14T09:24:48Z</time></trkpt><trkpt lat="52.0784654282" lon="-2.1068654582"><ele>16.48</ele><time>2017-06-14T09:24:49Z</time></trkpt><trkpt lat="52.0784692839" lon="-2.1068365406"><ele>20.81</ele><time>2017-06-14T09:24:51Z</time></trkpt><trkpt lat="52.0784700383" lon="-2.1068253927"><ele>19.36</ele><time>2017-06-14T09:24:52Z</time></trkpt><trkpt lat="52.0784734748" lon="-2.1067497041"><ele>18.40</ele><time>2017-06-14T09:24:57Z</time></trkpt><trkpt lat="52.0784734748" lon="-2.1067228820"><ele>17.92</ele><time>2017-06-14T09:24:59Z</time></trkpt><trkpt lat="52.0784643386" lon="-2.1065853350"><ele>16.96</ele><time>2017-06-14T09:25:09Z</time></trkpt><trkpt lat="52.0784611534" lon="-2.1065615304"><ele>20.81</ele><time>2017-06-14T09:25:11Z</time></trkpt><trkpt lat="52.0784594771" lon="-2.1065516397"><ele>16.48</ele><time>2017-06-14T09:25:12Z</time></trkpt><trkpt lat="52.0784603152" lon="-2.1065410785"><ele>19.84</ele><time>2017-06-14T09:25:13Z</time></trkpt><trkpt lat="52.0784544479" lon="-2.1064736042"><ele>16.48</ele><time>2017-06-14T09:25:18Z</time></trkpt><trkpt lat="52.0784567110" lon="-2.1064423397"><ele>20.32</ele><time>2017-06-14T09:25:20Z</time></trkpt><trkpt lat="52.0784550346" lon="-2.1064161044"><ele>17.44</ele><time>2017-06-14T09:25:22Z</time></trkpt><trkpt lat="52.0784507599" lon="-2.1063259989"><ele>17.44</ele><time>2017-06-14T09:25:29Z</time></trkpt><trkpt lat="52.0784510113" lon="-2.1062911302"><ele>19.36</ele><time>2017-06-14T09:25:31Z</time></trkpt><trkpt lat="52.0784506761" lon="-2.1062789764"><ele>16.00</ele><time>2017-06-14T09:25:32Z</time></trkpt><trkpt lat="52.0784496702" lon="-2.1062658168"><ele>19.36</ele><time>2017-06-14T09:25:33Z</time></trkpt><trkpt lat="52.0784435514" lon="-2.1062241588"><ele>16.48</ele><time>2017-06-14T09:25:36Z</time></trkpt><trkpt lat="52.0784427132" lon="-2.1061809920"><ele>16.00</ele><time>2017-06-14T09:25:39Z</time></trkpt><trkpt lat="52.0784423780" lon="-2.1061659046"><ele>19.84</ele><time>2017-06-14T09:25:40Z</time></trkpt><trkpt lat="52.0784588065" lon="-2.1059616376"><ele>19.84</ele><time>2017-06-14T09:25:54Z</time></trkpt><trkpt lat="52.0784587227" lon="-2.1059217397"><ele>18.88</ele><time>2017-06-14T09:25:58Z</time></trkpt><trkpt lat="52.0784648415" lon="-2.1057981905"><ele>17.92</ele><time>2017-06-14T09:26:07Z</time></trkpt><trkpt lat="52.0784881432" lon="-2.1055877209"><ele>18.88</ele><time>2017-06-14T09:26:21Z</time></trkpt><trkpt lat="52.0784920827" lon="-2.1055033989"><ele>16.96</ele><time>2017-06-14T09:26:27Z</time></trkpt><trkpt lat="52.0784969442" lon="-2.1054588072"><ele>19.36</ele><time>2017-06-14T09:26:30Z</time></trkpt><trkpt lat="52.0784983691" lon="-2.1054441389"><ele>16.96</ele><time>2017-06-14T09:26:31Z</time></trkpt><trkpt lat="52.0785137918" lon="-2.1053495072"><ele>19.36</ele><time>2017-06-14T09:26:37Z</time></trkpt><trkpt lat="52.0785533544" lon="-2.1051743254"><ele>18.88</ele><time>2017-06-14T09:26:49Z</time></trkpt><trkpt lat="52.0785779133" lon="-2.1051141433"><ele>18.88</ele><time>2017-06-14T09:26:54Z</time></trkpt><trkpt lat="52.0786049869" lon="-2.1050106268"><ele>19.36</ele><time>2017-06-14T09:27:01Z</time></trkpt><trkpt lat="52.0786132850" lon="-2.1049880795"><ele>16.96</ele><time>2017-06-14T09:27:03Z</time></trkpt><trkpt lat="52.0786396880" lon="-2.1049048472"><ele>20.32</ele><time>2017-06-14T09:27:09Z</time></trkpt><trkpt lat="52.0786517579" lon="-2.1048782766"><ele>17.44</ele><time>2017-06-14T09:27:11Z</time></trkpt><trkpt lat="52.0787106827" lon="-2.1047501173"><ele>17.44</ele><time>2017-06-14T09:27:20Z</time></trkpt><trkpt lat="52.0787328109" lon="-2.1047066152"><ele>16.96</ele><time>2017-06-14T09:27:24Z</time></trkpt><trkpt lat="52.0787423663" lon="-2.1046810504"><ele>19.36</ele><time>2017-06-14T09:27:26Z</time></trkpt><trkpt lat="52.0787460543" lon="-2.1046705730"><ele>16.00</ele><time>2017-06-14T09:27:27Z</time></trkpt><trkpt lat="52.0787727088" lon="-2.1046360396"><ele>19.84</ele><time>2017-06-14T09:27:31Z</time></trkpt><trkpt lat="52.0788066555" lon="-2.1045995783"><ele>16.96</ele><time>2017-06-14T09:27:36Z</time></trkpt><trkpt lat="52.0788318850" lon="-2.1045792103"><ele>18.88</ele><time>2017-06-14T09:27:39Z</time></trkpt><trkpt lat="52.0788504090" lon="-2.1045668051"><ele>17.44</ele><time>2017-06-14T09:27:41Z</time></trkpt><trkpt lat="52.0788724534" lon="-2.1045538131"><ele>18.40</ele><time>2017-06-14T09:27:44Z</time></trkpt><trkpt lat="52.0789218228" lon="-2.1045045275"><ele>18.88</ele><time>2017-06-14T09:27:51Z</time></trkpt><trkpt lat="52.0789418556" lon="-2.1044901945"><ele>17.44</ele><time>2017-06-14T09:27:54Z</time></trkpt><trkpt lat="52.0790585317" lon="-2.1043578442"><ele>19.84</ele><time>2017-06-14T09:28:10Z</time></trkpt><trkpt lat="52.0790665783" lon="-2.1043482888"><ele>16.48</ele><time>2017-06-14T09:28:11Z</time></trkpt><trkpt lat="52.0790939871" lon="-2.1043261606"><ele>18.40</ele><time>2017-06-14T09:28:14Z</time></trkpt><trkpt lat="52.0792188775" lon="-2.1042544115"><ele>16.48</ele><time>2017-06-14T09:28:29Z</time></trkpt><trkpt lat="52.0792357251" lon="-2.1042408329"><ele>19.36</ele><time>2017-06-14T09:28:31Z</time></trkpt><trkpt lat="52.0792552549" lon="-2.1042240690"><ele>15.52</ele><time>2017-06-14T09:28:34Z</time></trkpt><trkpt lat="52.0792627148" lon="-2.1042199619"><ele>18.88</ele><time>2017-06-14T09:28:35Z</time></trkpt><trkpt lat="52.0793284290" lon="-2.1041752864"><ele>19.36</ele><time>2017-06-14T09:28:43Z</time></trkpt><trkpt lat="52.0793465339" lon="-2.1041664854"><ele>14.56</ele><time>2017-06-14T09:28:45Z</time></trkpt><trkpt lat="52.0793552510" lon="-2.1041616239"><ele>18.88</ele><time>2017-06-14T09:28:46Z</time></trkpt><trkpt lat="52.0793715119" lon="-2.1041565947"><ele>15.52</ele><time>2017-06-14T09:28:48Z</time></trkpt><trkpt lat="52.0793902036" lon="-2.1041577682"><ele>20.32</ele><time>2017-06-14T09:28:50Z</time></trkpt><trkpt lat="52.0793990884" lon="-2.1041599475"><ele>16.96</ele><time>2017-06-14T09:28:51Z</time></trkpt><trkpt lat="52.0794165228" lon="-2.1041592769"><ele>19.84</ele><time>2017-06-14T09:28:53Z</time></trkpt><trkpt lat="52.0794405788" lon="-2.1041494701"><ele>16.00</ele><time>2017-06-14T09:28:56Z</time></trkpt><trkpt lat="52.0794585999" lon="-2.1041467041"><ele>19.84</ele><time>2017-06-14T09:28:58Z</time></trkpt><trkpt lat="52.0794660598" lon="-2.1041479614"><ele>15.04</ele><time>2017-06-14T09:28:59Z</time></trkpt><trkpt lat="52.0794731844" lon="-2.1041468717"><ele>18.40</ele><time>2017-06-14T09:29:00Z</time></trkpt><trkpt lat="52.0794864278" lon="-2.1041518170"><ele>15.04</ele><time>2017-06-14T09:29:02Z</time></trkpt><trkpt lat="52.0795162674" lon="-2.1041556727"><ele>15.04</ele><time>2017-06-14T09:29:05Z</time></trkpt><trkpt lat="52.0795370545" lon="-2.1041498892"><ele>19.84</ele><time>2017-06-14T09:29:07Z</time></trkpt><trkpt lat="52.0795730967" lon="-2.1041608695"><ele>19.84</ele><time>2017-06-14T09:29:11Z</time></trkpt><trkpt lat="52.0795834903" lon="-2.1041651443"><ele>16.48</ele><time>2017-06-14T09:29:12Z</time></trkpt><trkpt lat="52.0796040259" lon="-2.1041722689"><ele>20.32</ele><time>2017-06-14T09:29:14Z</time></trkpt><trkpt lat="52.0796893537" lon="-2.1041862667"><ele>16.96</ele><time>2017-06-14T09:29:24Z</time></trkpt><trkpt lat="52.0797677245" lon="-2.1042187884"><ele>18.88</ele><time>2017-06-14T09:29:33Z</time></trkpt><trkpt lat="52.0797801297" lon="-2.1042254101"><ele>16.00</ele><time>2017-06-14T09:29:35Z</time></trkpt><trkpt lat="52.0797868352" lon="-2.1042263322"><ele>19.36</ele><time>2017-06-14T09:29:36Z</time></trkpt><trkpt lat="52.0798983146" lon="-2.1042702533"><ele>17.92</ele><time>2017-06-14T09:29:49Z</time></trkpt><trkpt lat="52.0800004061" lon="-2.1043057088"><ele>16.00</ele><time>2017-06-14T09:30:00Z</time></trkpt><trkpt lat="52.0800156612" lon="-2.1043181140"><ele>19.84</ele><time>2017-06-14T09:30:02Z</time></trkpt><trkpt lat="52.0800480992" lon="-2.1043442655"><ele>16.48</ele><time>2017-06-14T09:30:06Z</time></trkpt><trkpt lat="52.0800691377" lon="-2.1043513902"><ele>19.36</ele><time>2017-06-14T09:30:09Z</time></trkpt><trkpt lat="52.0800771005" lon="-2.1043578442"><ele>16.48</ele><time>2017-06-14T09:30:10Z</time></trkpt><trkpt lat="52.0801382046" lon="-2.1044065431"><ele>20.32</ele><time>2017-06-14T09:30:19Z</time></trkpt><trkpt lat="52.0801658649" lon="-2.1044086386"><ele>19.84</ele><time>2017-06-14T09:30:22Z</time></trkpt><trkpt lat="52.0801739953" lon="-2.1044072974"><ele>16.48</ele><time>2017-06-14T09:30:23Z</time></trkpt><trkpt lat="52.0801812038" lon="-2.1044087224"><ele>17.92</ele><time>2017-06-14T09:30:24Z</time></trkpt><trkpt lat="52.0802863128" lon="-2.1045398992"><ele>18.88</ele><time>2017-06-14T09:30:37Z</time></trkpt><trkpt lat="52.0803084411" lon="-2.1045631170"><ele>18.88</ele><time>2017-06-14T09:30:40Z</time></trkpt><trkpt lat="52.0803312398" lon="-2.1045908611"><ele>19.84</ele><time>2017-06-14T09:30:43Z</time></trkpt><trkpt lat="52.0803350117" lon="-2.1045984887"><ele>16.48</ele><time>2017-06-14T09:30:44Z</time></trkpt><trkpt lat="52.0803487580" lon="-2.1046057809"><ele>20.32</ele><time>2017-06-14T09:30:46Z</time></trkpt><trkpt lat="52.0803545415" lon="-2.1046113130"><ele>16.00</ele><time>2017-06-14T09:30:47Z</time></trkpt><trkpt lat="52.0803660247" lon="-2.1046258137"><ele>19.36</ele><time>2017-06-14T09:30:49Z</time></trkpt><trkpt lat="52.0803697966" lon="-2.1046270709"><ele>16.00</ele><time>2017-06-14T09:30:50Z</time></trkpt><trkpt lat="52.0803775080" lon="-2.1046328545"><ele>20.32</ele><time>2017-06-14T09:31:11Z</time></trkpt><trkpt lat="52.0803794358" lon="-2.1046284959"><ele>15.04</ele><time>2017-06-14T09:31:24Z</time></trkpt><trkpt lat="52.0803821180" lon="-2.1046367940"><ele>20.81</ele><time>2017-06-14T09:31:25Z</time></trkpt><trkpt lat="52.0803862251" lon="-2.1046475228"><ele>15.52</ele><time>2017-06-14T09:31:26Z</time></trkpt><trkpt lat="52.0803968702" lon="-2.1046696510"><ele>19.36</ele><time>2017-06-14T09:31:28Z</time></trkpt><trkpt lat="52.0804014802" lon="-2.1046797093"><ele>18.88</ele><time>2017-06-14T09:31:29Z</time></trkpt><trkpt lat="52.0804532804" lon="-2.1047967207"><ele>17.92</ele><time>2017-06-14T09:31:40Z</time></trkpt><trkpt lat="52.0804640930" lon="-2.1048151609"><ele>17.44</ele><time>2017-06-14T09:31:42Z</time></trkpt><trkpt lat="52.0804866403" lon="-2.1048647817"><ele>17.44</ele><time>2017-06-14T09:31:46Z</time></trkpt><trkpt lat="52.0805158094" lon="-2.1049411409"><ele>18.40</ele><time>2017-06-14T09:31:52Z</time></trkpt><trkpt lat="52.0805377699" lon="-2.1049864031"><ele>19.84</ele><time>2017-06-14T09:31:56Z</time></trkpt><trkpt lat="52.0805440564" lon="-2.1050149016"><ele>16.96</ele><time>2017-06-14T09:31:58Z</time></trkpt><trkpt lat="52.0806080103" lon="-2.1051566396"><ele>17.44</ele><time>2017-06-14T09:32:09Z</time></trkpt><trkpt lat="52.0806897338" lon="-2.1052496787"><ele>16.48</ele><time>2017-06-14T09:32:23Z</time></trkpt><trkpt lat="52.0806921646" lon="-2.1052517742"><ele>18.40</ele><time>2017-06-14T09:32:24Z</time></trkpt><trkpt lat="52.0806951821" lon="-2.1052408777"><ele>17.92</ele><time>2017-06-14T09:32:46Z</time></trkpt><trkpt lat="52.0807112753" lon="-2.1052190010"><ele>17.44</ele><time>2017-06-14T09:33:02Z</time></trkpt><trkpt lat="52.0807111077" lon="-2.1050762571"><ele>17.92</ele><time>2017-06-14T09:33:15Z</time></trkpt><trkpt lat="52.0807013847" lon="-2.1050016582"><ele>17.44</ele><time>2017-06-14T09:33:21Z</time></trkpt><trkpt lat="52.0806799270" lon="-2.1048225369"><ele>17.44</ele><time>2017-06-14T09:33:33Z</time></trkpt><trkpt lat="52.0806507580" lon="-2.1047534700"><ele>17.44</ele><time>2017-06-14T09:33:39Z</time></trkpt><trkpt lat="52.0806045737" lon="-2.1045824792"><ele>16.96</ele><time>2017-06-14T09:33:52Z</time></trkpt><trkpt lat="52.0805823617" lon="-2.1044562478"><ele>18.40</ele><time>2017-06-14T09:34:01Z</time></trkpt><trkpt lat="52.0805792604" lon="-2.1044359636"><ele>16.96</ele><time>2017-06-14T09:34:02Z</time></trkpt><trkpt lat="52.0805619098" lon="-2.1043854207"><ele>17.44</ele><time>2017-06-14T09:34:05Z</time></trkpt><trkpt lat="52.0805502590" lon="-2.1043394040"><ele>18.88</ele><time>2017-06-14T09:34:08Z</time></trkpt><trkpt lat="52.0805285498" lon="-2.1042634640"><ele>16.96</ele><time>2017-06-14T09:34:16Z</time></trkpt><trkpt lat="52.0805179887" lon="-2.1042372286"><ele>17.92</ele><time>2017-06-14T09:34:18Z</time></trkpt><trkpt lat="52.0805096906" lon="-2.1042041201"><ele>16.96</ele><time>2017-06-14T09:34:21Z</time></trkpt><trkpt lat="52.0804958604" lon="-2.1041719336"><ele>18.40</ele><time>2017-06-14T09:34:23Z</time></trkpt><trkpt lat="52.0804827847" lon="-2.1041091532"><ele>18.88</ele><time>2017-06-14T09:34:27Z</time></trkpt><trkpt lat="52.0804966986" lon="-2.1040111687"><ele>17.44</ele><time>2017-06-14T09:34:33Z</time></trkpt><trkpt lat="52.0804878138" lon="-2.1038996894"><ele>17.92</ele><time>2017-06-14T09:34:39Z</time></trkpt><trkpt lat="52.0804844610" lon="-2.1037733741"><ele>17.92</ele><time>2017-06-14T09:34:47Z</time></trkpt><trkpt lat="52.0804646797" lon="-2.1036001202"><ele>16.00</ele><time>2017-06-14T09:34:59Z</time></trkpt><trkpt lat="52.0804638416" lon="-2.1035877150"><ele>17.92</ele><time>2017-06-14T09:35:00Z</time></trkpt><trkpt lat="52.0804539509" lon="-2.1035250183"><ele>16.96</ele><time>2017-06-14T09:35:04Z</time></trkpt><trkpt lat="52.0804469939" lon="-2.1034457255"><ele>17.44</ele><time>2017-06-14T09:35:09Z</time></trkpt><trkpt lat="52.0804387797" lon="-2.1034114435"><ele>18.40</ele><time>2017-06-14T09:35:11Z</time></trkpt><trkpt lat="52.0804378577" lon="-2.1033883933"><ele>16.96</ele><time>2017-06-14T09:35:13Z</time></trkpt><trkpt lat="52.0804366842" lon="-2.1033722162"><ele>18.40</ele><time>2017-06-14T09:35:14Z</time></trkpt><trkpt lat="52.0804334991" lon="-2.1032108646"><ele>17.92</ele><time>2017-06-14T09:35:24Z</time></trkpt><trkpt lat="52.0804327447" lon="-2.1031431388"><ele>16.96</ele><time>2017-06-14T09:35:28Z</time></trkpt><trkpt lat="52.0804257039" lon="-2.1030744072"><ele>16.96</ele><time>2017-06-14T09:35:33Z</time></trkpt><trkpt lat="52.0803974569" lon="-2.1028794441"><ele>18.40</ele><time>2017-06-14T09:35:47Z</time></trkpt><trkpt lat="52.0803988818" lon="-2.1028055158"><ele>18.40</ele><time>2017-06-14T09:35:52Z</time></trkpt><trkpt lat="52.0803981274" lon="-2.1027392987"><ele>16.96</ele><time>2017-06-14T09:35:56Z</time></trkpt><trkpt lat="52.0803847164" lon="-2.1026774403"><ele>16.96</ele><time>2017-06-14T09:36:00Z</time></trkpt><trkpt lat="52.0803846326" lon="-2.1025343612"><ele>17.92</ele><time>2017-06-14T09:36:10Z</time></trkpt><trkpt lat="52.0804114547" lon="-2.1024465188"><ele>18.40</ele><time>2017-06-14T09:36:16Z</time></trkpt><trkpt lat="52.0804296434" lon="-2.1024191100"><ele>17.92</ele><time>2017-06-14T09:36:18Z</time></trkpt><trkpt lat="52.0804595668" lon="-2.1024147514"><ele>16.96</ele><time>2017-06-14T09:36:21Z</time></trkpt><trkpt lat="52.0805184916" lon="-2.1023888513"><ele>17.92</ele><time>2017-06-14T09:36:27Z</time></trkpt><trkpt lat="52.0806713775" lon="-2.1023372188"><ele>17.44</ele><time>2017-06-14T09:36:44Z</time></trkpt><trkpt lat="52.0807134546" lon="-2.1023297589"><ele>17.92</ele><time>2017-06-14T09:36:47Z</time></trkpt><trkpt lat="52.0808712859" lon="-2.1022707503"><ele>17.92</ele><time>2017-06-14T09:37:00Z</time></trkpt><trkpt lat="52.0808908995" lon="-2.1022581775"><ele>19.36</ele><time>2017-06-14T09:37:02Z</time></trkpt><trkpt lat="52.0809535123" lon="-2.1022312716"><ele>16.96</ele><time>2017-06-14T09:37:09Z</time></trkpt><trkpt lat="52.0810315479" lon="-2.1022009291"><ele>16.96</ele><time>2017-06-14T09:37:17Z</time></trkpt><trkpt lat="52.0811760519" lon="-2.1021630429"><ele>17.92</ele><time>2017-06-14T09:37:31Z</time></trkpt><trkpt lat="52.0813459530" lon="-2.1021324489"><ele>18.88</ele><time>2017-06-14T09:37:45Z</time></trkpt><trkpt lat="52.0815382339" lon="-2.1021034475"><ele>18.88</ele><time>2017-06-14T09:38:00Z</time></trkpt><trkpt lat="52.0816888567" lon="-2.1020570118"><ele>19.36</ele><time>2017-06-14T09:38:13Z</time></trkpt><trkpt lat="52.0817035250" lon="-2.1020642202"><ele>19.36</ele><time>2017-06-14T09:38:32Z</time></trkpt><trkpt lat="52.0817114040" lon="-2.1020575147"><ele>15.52</ele><time>2017-06-14T09:38:43Z</time></trkpt><trkpt lat="52.0817117393" lon="-2.1020576824"><ele>19.84</ele><time>2017-06-14T09:38:44Z</time></trkpt><trkpt lat="52.0817147568" lon="-2.1020493843"><ele>18.40</ele><time>2017-06-14T09:38:47Z</time></trkpt><trkpt lat="52.0817150921" lon="-2.1019611228"><ele>18.40</ele><time>2017-06-14T09:38:59Z</time></trkpt><trkpt lat="52.0817129966" lon="-2.1019445267"><ele>18.88</ele><time>2017-06-14T09:39:00Z</time></trkpt><trkpt lat="52.0817072969" lon="-2.1018930618"><ele>16.96</ele><time>2017-06-14T09:39:03Z</time></trkpt><trkpt lat="52.0817215461" lon="-2.1016260982"><ele>18.40</ele><time>2017-06-14T09:39:19Z</time></trkpt><trkpt lat="52.0817119069" lon="-2.1014634892"><ele>19.36</ele><time>2017-06-14T09:39:34Z</time></trkpt><trkpt lat="52.0817103144" lon="-2.1014406905"><ele>18.88</ele><time>2017-06-14T09:39:41Z</time></trkpt><trkpt lat="52.0816962328" lon="-2.1013639122"><ele>19.84</ele><time>2017-06-14T09:39:45Z</time></trkpt><trkpt lat="52.0816870965" lon="-2.1012664307"><ele>20.32</ele><time>2017-06-14T09:39:50Z</time></trkpt><trkpt lat="52.0816667285" lon="-2.1010283008"><ele>19.84</ele><time>2017-06-14T09:40:03Z</time></trkpt><trkpt lat="52.0816527307" lon="-2.1009221859"><ele>18.88</ele><time>2017-06-14T09:40:09Z</time></trkpt><trkpt lat="52.0816493779" lon="-2.1008237824"><ele>20.32</ele><time>2017-06-14T09:40:15Z</time></trkpt><trkpt lat="52.0816454384" lon="-2.1007583197"><ele>19.36</ele><time>2017-06-14T09:40:19Z</time></trkpt><trkpt lat="52.0816202927" lon="-2.1005403902"><ele>22.25</ele><time>2017-06-14T09:40:33Z</time></trkpt><trkpt lat="52.0816218853" lon="-2.1004309226"><ele>18.88</ele><time>2017-06-14T09:40:40Z</time></trkpt><trkpt lat="52.0816267468" lon="-2.1003591735"><ele>20.81</ele><time>2017-06-14T09:40:45Z</time></trkpt><trkpt lat="52.0816112403" lon="-2.1000736021"><ele>20.32</ele><time>2017-06-14T09:41:02Z</time></trkpt><trkpt lat="52.0816041157" lon="-2.0998259168"><ele>20.81</ele><time>2017-06-14T09:41:18Z</time></trkpt><trkpt lat="52.0815897826" lon="-2.0997329615"><ele>21.29</ele><time>2017-06-14T09:41:30Z</time></trkpt><trkpt lat="52.0815911237" lon="-2.0996852685"><ele>19.84</ele><time>2017-06-14T09:41:33Z</time></trkpt><trkpt lat="52.0816009305" lon="-2.0994577836"><ele>21.29</ele><time>2017-06-14T09:41:46Z</time></trkpt><trkpt lat="52.0815996733" lon="-2.0993758086"><ele>20.81</ele><time>2017-06-14T09:41:56Z</time></trkpt><trkpt lat="52.0815900341" lon="-2.0991079230"><ele>19.84</ele><time>2017-06-14T09:42:11Z</time></trkpt><trkpt lat="52.0816096477" lon="-2.0989868883"><ele>19.36</ele><time>2017-06-14T09:42:17Z</time></trkpt><trkpt lat="52.0816161018" lon="-2.0987404604"><ele>19.84</ele><time>2017-06-14T09:42:33Z</time></trkpt><trkpt lat="52.0815218054" lon="-2.0986598264"><ele>18.40</ele><time>2017-06-14T09:42:50Z</time></trkpt><trkpt lat="52.0814994257" lon="-2.0986543782"><ele>17.92</ele><time>2017-06-14T09:42:52Z</time></trkpt><trkpt lat="52.0814729389" lon="-2.0986513607"><ele>18.40</ele><time>2017-06-14T09:42:54Z</time></trkpt><trkpt lat="52.0813407563" lon="-2.0986407995"><ele>18.88</ele><time>2017-06-14T09:43:01Z</time></trkpt><trkpt lat="52.0811723638" lon="-2.0985822938"><ele>17.92</ele><time>2017-06-14T09:43:16Z</time></trkpt><trkpt lat="52.0811334718" lon="-2.0986091997"><ele>17.92</ele><time>2017-06-14T09:43:21Z</time></trkpt><trkpt lat="52.0810260996" lon="-2.0986001473"><ele>16.96</ele><time>2017-06-14T09:43:37Z</time></trkpt><trkpt lat="52.0809648279" lon="-2.0986357704"><ele>16.96</ele><time>2017-06-14T09:43:53Z</time></trkpt><trkpt lat="52.0808815956" lon="-2.0986206830"><ele>20.32</ele><time>2017-06-14T09:44:00Z</time></trkpt><trkpt lat="52.0808635745" lon="-2.0986024104"><ele>16.96</ele><time>2017-06-14T09:44:02Z</time></trkpt><trkpt lat="52.0808531810" lon="-2.0985905081"><ele>14.56</ele><time>2017-06-14T09:44:09Z</time></trkpt><trkpt lat="52.0808159653" lon="-2.0985664520"><ele>18.88</ele><time>2017-06-14T09:44:25Z</time></trkpt><trkpt lat="52.0808019675" lon="-2.0985256322"><ele>17.44</ele><time>2017-06-14T09:44:31Z</time></trkpt><trkpt lat="52.0808022190" lon="-2.0984901767"><ele>17.44</ele><time>2017-06-14T09:44:33Z</time></trkpt><trkpt lat="52.0808028895" lon="-2.0984172542"><ele>17.44</ele><time>2017-06-14T09:44:38Z</time></trkpt><trkpt lat="52.0807947591" lon="-2.0981984865"><ele>18.40</ele><time>2017-06-14T09:44:54Z</time></trkpt><trkpt lat="52.0807815995" lon="-2.0981175173"><ele>17.44</ele><time>2017-06-14T09:45:00Z</time></trkpt><trkpt lat="52.0807784144" lon="-2.0980262384"><ele>16.96</ele><time>2017-06-14T09:45:05Z</time></trkpt><trkpt lat="52.0807297993" lon="-2.0976920519"><ele>16.48</ele><time>2017-06-14T09:45:24Z</time></trkpt><trkpt lat="52.0807261951" lon="-2.0976762101"><ele>16.96</ele><time>2017-06-14T09:45:25Z</time></trkpt><trkpt lat="52.0807093475" lon="-2.0976014435"><ele>17.44</ele><time>2017-06-14T09:45:30Z</time></trkpt><trkpt lat="52.0806450583" lon="-2.0973721147"><ele>18.40</ele><time>2017-06-14T09:45:45Z</time></trkpt><trkpt lat="52.0806293003" lon="-2.0972962584"><ele>17.44</ele><time>2017-06-14T09:45:50Z</time></trkpt><trkpt lat="52.0806077588" lon="-2.0969817694"><ele>17.92</ele><time>2017-06-14T09:46:10Z</time></trkpt><trkpt lat="52.0806093514" lon="-2.0969381835"><ele>17.92</ele><time>2017-06-14T09:46:13Z</time></trkpt><trkpt lat="52.0806205831" lon="-2.0967258699"><ele>17.92</ele><time>2017-06-14T09:46:26Z</time></trkpt><trkpt lat="52.0806230977" lon="-2.0967179071"><ele>16.96</ele><time>2017-06-14T09:46:28Z</time></trkpt><trkpt lat="52.0806392748" lon="-2.0966867264"><ele>17.44</ele><time>2017-06-14T09:46:31Z</time></trkpt><trkpt lat="52.0806656778" lon="-2.0966486726"><ele>17.92</ele><time>2017-06-14T09:46:38Z</time></trkpt><trkpt lat="52.0807388518" lon="-2.0965459943"><ele>18.88</ele><time>2017-06-14T09:46:49Z</time></trkpt><trkpt lat="52.0808151271" lon="-2.0964123867"><ele>18.88</ele><time>2017-06-14T09:47:03Z</time></trkpt><trkpt lat="52.0808581263" lon="-2.0962889213"><ele>20.32</ele><time>2017-06-14T09:47:17Z</time></trkpt><trkpt lat="52.0808573719" lon="-2.0963097084"><ele>20.32</ele><time>2017-06-14T09:47:38Z</time></trkpt><trkpt lat="52.0808598865" lon="-2.0963117201"><ele>16.96</ele><time>2017-06-14T09:47:40Z</time></trkpt><trkpt lat="52.0808617305" lon="-2.0963036735"><ele>21.29</ele><time>2017-06-14T09:47:41Z</time></trkpt><trkpt lat="52.0808575395" lon="-2.0961071178"><ele>20.32</ele><time>2017-06-14T09:47:54Z</time></trkpt><trkpt lat="52.0808376744" lon="-2.0960875880"><ele>20.32</ele><time>2017-06-14T09:47:59Z</time></trkpt><trkpt lat="52.0807986148" lon="-2.0959842391"><ele>18.40</ele><time>2017-06-14T09:48:08Z</time></trkpt><trkpt lat="52.0807944238" lon="-2.0959530585"><ele>21.77</ele><time>2017-06-14T09:48:10Z</time></trkpt><trkpt lat="52.0807909034" lon="-2.0959384739"><ele>17.44</ele><time>2017-06-14T09:48:11Z</time></trkpt><trkpt lat="52.0807893109" lon="-2.0959244762"><ele>21.29</ele><time>2017-06-14T09:48:12Z</time></trkpt><trkpt lat="52.0807968546" lon="-2.0958998334"><ele>16.96</ele><time>2017-06-14T09:48:20Z</time></trkpt><trkpt lat="52.0807969384" lon="-2.0958999172"><ele>20.81</ele><time>2017-06-14T09:48:21Z</time></trkpt><trkpt lat="52.0807941724" lon="-2.0958164334"><ele>20.81</ele><time>2017-06-14T09:48:35Z</time></trkpt><trkpt lat="52.0807886403" lon="-2.0957248192"><ele>19.84</ele><time>2017-06-14T09:48:50Z</time></trkpt><trkpt lat="52.0807603095" lon="-2.0955584385"><ele>19.84</ele><time>2017-06-14T09:49:04Z</time></trkpt><trkpt lat="52.0807405282" lon="-2.0953617990"><ele>20.32</ele><time>2017-06-14T09:49:18Z</time></trkpt><trkpt lat="52.0807099342" lon="-2.0952807460"><ele>21.29</ele><time>2017-06-14T09:49:34Z</time></trkpt><trkpt lat="52.0806798432" lon="-2.0950509142"><ele>20.32</ele><time>2017-06-14T09:49:50Z</time></trkpt><trkpt lat="52.0806527697" lon="-2.0948869642"><ele>20.81</ele><time>2017-06-14T09:50:04Z</time></trkpt><trkpt lat="52.0806365926" lon="-2.0947464835"><ele>19.84</ele><time>2017-06-14T09:50:14Z</time></trkpt><trkpt lat="52.0806064177" lon="-2.0946186595"><ele>20.81</ele><time>2017-06-14T09:50:22Z</time></trkpt><trkpt lat="52.0805790089" lon="-2.0943968743"><ele>20.32</ele><time>2017-06-14T09:50:34Z</time></trkpt><trkpt lat="52.0805838704" lon="-2.0942800306"><ele>20.32</ele><time>2017-06-14T09:50:40Z</time></trkpt><trkpt lat="52.0805638377" lon="-2.0942031685"><ele>18.40</ele><time>2017-06-14T09:50:44Z</time></trkpt><trkpt lat="52.0805308130" lon="-2.0939989015"><ele>18.88</ele><time>2017-06-14T09:50:54Z</time></trkpt><trkpt lat="52.0805012248" lon="-2.0939411502"><ele>20.32</ele><time>2017-06-14T09:50:57Z</time></trkpt><trkpt lat="52.0804329962" lon="-2.0938709099"><ele>20.32</ele><time>2017-06-14T09:51:02Z</time></trkpt><trkpt lat="52.0803893264" lon="-2.0938140806"><ele>18.40</ele><time>2017-06-14T09:51:07Z</time></trkpt><trkpt lat="52.0803340897" lon="-2.0937414095"><ele>20.81</ele><time>2017-06-14T09:51:12Z</time></trkpt><trkpt lat="52.0802943595" lon="-2.0936684869"><ele>18.88</ele><time>2017-06-14T09:51:17Z</time></trkpt><trkpt lat="52.0802377816" lon="-2.0934928861"><ele>20.81</ele><time>2017-06-14T09:51:25Z</time></trkpt><trkpt lat="52.0801980514" lon="-2.0933964103"><ele>17.92</ele><time>2017-06-14T09:51:32Z</time></trkpt><trkpt lat="52.0801659487" lon="-2.0933201350"><ele>19.84</ele><time>2017-06-14T09:51:36Z</time></trkpt><trkpt lat="52.0801348519" lon="-2.0932852663"><ele>19.36</ele><time>2017-06-14T09:51:42Z</time></trkpt><trkpt lat="52.0800674614" lon="-2.0929696877"><ele>19.36</ele><time>2017-06-14T09:51:57Z</time></trkpt><trkpt lat="52.0800425671" lon="-2.0928895567"><ele>17.92</ele><time>2017-06-14T09:52:02Z</time></trkpt><trkpt lat="52.0800389629" lon="-2.0928722899"><ele>18.88</ele><time>2017-06-14T09:52:03Z</time></trkpt><trkpt lat="52.0799089596" lon="-2.0926142950"><ele>19.84</ele><time>2017-06-14T09:52:18Z</time></trkpt><trkpt lat="52.0798712410" lon="-2.0925265364"><ele>17.92</ele><time>2017-06-14T09:52:23Z</time></trkpt><trkpt lat="52.0798623562" lon="-2.0924777538"><ele>19.36</ele><time>2017-06-14T09:52:26Z</time></trkpt><trkpt lat="52.0798232965" lon="-2.0924173202"><ele>18.88</ele><time>2017-06-14T09:52:31Z</time></trkpt><trkpt lat="52.0797706582" lon="-2.0922747441"><ele>19.36</ele><time>2017-06-14T09:52:41Z</time></trkpt><trkpt lat="52.0796958078" lon="-2.0920971315"><ele>17.44</ele><time>2017-06-14T09:52:55Z</time></trkpt><trkpt lat="52.0796710812" lon="-2.0920403022"><ele>18.88</ele><time>2017-06-14T09:52:59Z</time></trkpt><trkpt lat="52.0795986615" lon="-2.0919059403"><ele>19.36</ele><time>2017-06-14T09:53:10Z</time></trkpt><trkpt lat="52.0795818139" lon="-2.0918849017"><ele>18.40</ele><time>2017-06-14T09:53:15Z</time></trkpt><trkpt lat="52.0795678999" lon="-2.0919225365"><ele>19.84</ele><time>2017-06-14T09:53:17Z</time></trkpt><trkpt lat="52.0795298461" lon="-2.0919543039"><ele>18.88</ele><time>2017-06-14T09:53:29Z</time></trkpt><trkpt lat="52.0795383118" lon="-2.0919487718"><ele>18.40</ele><time>2017-06-14T09:53:33Z</time></trkpt><trkpt lat="52.0795736834" lon="-2.0918612648"><ele>16.96</ele><time>2017-06-14T09:53:40Z</time></trkpt><trkpt lat="52.0795459393" lon="-2.0917827263"><ele>17.44</ele><time>2017-06-14T09:53:45Z</time></trkpt><trkpt lat="52.0794420037" lon="-2.0914489590"><ele>18.88</ele><time>2017-06-14T09:54:02Z</time></trkpt><trkpt lat="52.0794003457" lon="-2.0912087336"><ele>18.88</ele><time>2017-06-14T09:54:14Z</time></trkpt><trkpt lat="52.0793113299" lon="-2.0909214020"><ele>18.40</ele><time>2017-06-14T09:54:29Z</time></trkpt><trkpt lat="52.0793031994" lon="-2.0908929873"><ele>17.44</ele><time>2017-06-14T09:54:31Z</time></trkpt><trkpt lat="52.0792872738" lon="-2.0908519160"><ele>18.40</ele><time>2017-06-14T09:54:33Z</time></trkpt><trkpt lat="52.0792012755" lon="-2.0906381775"><ele>17.92</ele><time>2017-06-14T09:54:46Z</time></trkpt><trkpt lat="52.0791727770" lon="-2.0905526821"><ele>17.92</ele><time>2017-06-14T09:54:51Z</time></trkpt><trkpt lat="52.0791146066" lon="-2.0904289652"><ele>17.92</ele><time>2017-06-14T09:55:02Z</time></trkpt><trkpt lat="52.0791123435" lon="-2.0904230978"><ele>17.92</ele><time>2017-06-14T09:55:04Z</time></trkpt><trkpt lat="52.0790796541" lon="-2.0903857984"><ele>17.92</ele><time>2017-06-14T09:55:09Z</time></trkpt><trkpt lat="52.0789899677" lon="-2.0902052522"><ele>17.44</ele><time>2017-06-14T09:55:25Z</time></trkpt><trkpt lat="52.0789841842" lon="-2.0901982952"><ele>18.40</ele><time>2017-06-14T09:55:26Z</time></trkpt><trkpt lat="52.0789499022" lon="-2.0901592355"><ele>18.88</ele><time>2017-06-14T09:55:31Z</time></trkpt><trkpt lat="52.0789373294" lon="-2.0901408792"><ele>17.44</ele><time>2017-06-14T09:55:33Z</time></trkpt><trkpt lat="52.0788748004" lon="-2.0900155697"><ele>19.84</ele><time>2017-06-14T09:55:47Z</time></trkpt><trkpt lat="52.0788679272" lon="-2.0900090318"><ele>16.00</ele><time>2017-06-14T09:55:48Z</time></trkpt><trkpt lat="52.0788349025" lon="-2.0899512805"><ele>18.88</ele><time>2017-06-14T09:55:53Z</time></trkpt><trkpt lat="52.0787881315" lon="-2.0898640249"><ele>17.44</ele><time>2017-06-14T09:56:02Z</time></trkpt><trkpt lat="52.0786994509" lon="-2.0897482708"><ele>18.40</ele><time>2017-06-14T09:56:13Z</time></trkpt><trkpt lat="52.0786593016" lon="-2.0896994881"><ele>17.92</ele><time>2017-06-14T09:56:18Z</time></trkpt><trkpt lat="52.0785741415" lon="-2.0895140804"><ele>18.40</ele><time>2017-06-14T09:56:32Z</time></trkpt><trkpt lat="52.0785127860" lon="-2.0894058701"><ele>18.88</ele><time>2017-06-14T09:56:41Z</time></trkpt><trkpt lat="52.0784333255" lon="-2.0892365556"><ele>16.96</ele><time>2017-06-14T09:56:55Z</time></trkpt><trkpt lat="52.0784259494" lon="-2.0892241504"><ele>16.00</ele><time>2017-06-14T09:56:56Z</time></trkpt><trkpt lat="52.0784101076" lon="-2.0891990885"><ele>18.40</ele><time>2017-06-14T09:56:58Z</time></trkpt><trkpt lat="52.0783824474" lon="-2.0891599450"><ele>17.44</ele><time>2017-06-14T09:57:02Z</time></trkpt><trkpt lat="52.0783719700" lon="-2.0891493000"><ele>18.40</ele><time>2017-06-14T09:57:03Z</time></trkpt><trkpt lat="52.0783038251" lon="-2.0890330430"><ele>15.04</ele><time>2017-06-14T09:57:13Z</time></trkpt><trkpt lat="52.0782965329" lon="-2.0890198834"><ele>17.92</ele><time>2017-06-14T09:57:14Z</time></trkpt><trkpt lat="52.0782628376" lon="-2.0889776386"><ele>16.48</ele><time>2017-06-14T09:57:18Z</time></trkpt><trkpt lat="52.0781850535" lon="-2.0888245013"><ele>16.96</ele><time>2017-06-14T09:57:30Z</time></trkpt><trkpt lat="52.0781664457" lon="-2.0888021216"><ele>18.88</ele><time>2017-06-14T09:57:33Z</time></trkpt><trkpt lat="52.0781116281" lon="-2.0887500700"><ele>16.96</ele><time>2017-06-14T09:57:40Z</time></trkpt><trkpt lat="52.0781029947" lon="-2.0887410175"><ele>18.40</ele><time>2017-06-14T09:57:41Z</time></trkpt><trkpt lat="52.0780592412" lon="-2.0887061488"><ele>17.44</ele><time>2017-06-14T09:57:46Z</time></trkpt><trkpt lat="52.0779530425" lon="-2.0885872096"><ele>18.88</ele><time>2017-06-14T09:57:58Z</time></trkpt><trkpt lat="52.0779277291" lon="-2.0885566156"><ele>17.44</ele><time>2017-06-14T09:58:01Z</time></trkpt><trkpt lat="52.0779063553" lon="-2.0885434560"><ele>18.40</ele><time>2017-06-14T09:58:03Z</time></trkpt><trkpt lat="52.0778263919" lon="-2.0884519257"><ele>17.44</ele><time>2017-06-14T09:58:12Z</time></trkpt><trkpt lat="52.0777786989" lon="-2.0883996226"><ele>16.96</ele><time>2017-06-14T09:58:17Z</time></trkpt><trkpt lat="52.0777338557" lon="-2.0883561205"><ele>16.96</ele><time>2017-06-14T09:58:23Z</time></trkpt><trkpt lat="52.0777241327" lon="-2.0883473195"><ele>16.48</ele><time>2017-06-14T09:58:24Z</time></trkpt><trkpt lat="52.0776215382" lon="-2.0882154722"><ele>17.44</ele><time>2017-06-14T09:58:40Z</time></trkpt><trkpt lat="52.0775163453" lon="-2.0880936831"><ele>17.44</ele><time>2017-06-14T09:58:57Z</time></trkpt><trkpt lat="52.0774977375" lon="-2.0880733151"><ele>16.48</ele><time>2017-06-14T09:59:00Z</time></trkpt><trkpt lat="52.0774269104" lon="-2.0880087744"><ele>16.48</ele><time>2017-06-14T09:59:14Z</time></trkpt><trkpt lat="52.0774052851" lon="-2.0879958663"><ele>17.44</ele><time>2017-06-14T09:59:17Z</time></trkpt><trkpt lat="52.0773449354" lon="-2.0879678708"><ele>17.44</ele><time>2017-06-14T09:59:30Z</time></trkpt><trkpt lat="52.0773256570" lon="-2.0879553817"><ele>17.44</ele><time>2017-06-14T09:59:45Z</time></trkpt><trkpt lat="52.0772655588" lon="-2.0879190881"><ele>17.44</ele><time>2017-06-14T09:59:56Z</time></trkpt><trkpt lat="52.0772494655" lon="-2.0879441500"><ele>18.88</ele><time>2017-06-14T10:00:06Z</time></trkpt><trkpt lat="52.0772360545" lon="-2.0879575610"><ele>17.44</ele><time>2017-06-14T10:00:08Z</time></trkpt><trkpt lat="52.0771234017" lon="-2.0879851375"><ele>17.44</ele><time>2017-06-14T10:00:20Z</time></trkpt><trkpt lat="52.0771156903" lon="-2.0879944414"><ele>17.44</ele><time>2017-06-14T10:00:34Z</time></trkpt><trkpt lat="52.0771007705" lon="-2.0879629254"><ele>17.44</ele><time>2017-06-14T10:00:43Z</time></trkpt><trkpt lat="52.0771073084" lon="-2.0879575610"><ele>17.92</ele><time>2017-06-14T10:01:12Z</time></trkpt><trkpt lat="52.0771135110" lon="-2.0879477542"><ele>17.92</ele><time>2017-06-14T10:01:43Z</time></trkpt><trkpt lat="52.0770762116" lon="-2.0879825391"><ele>17.92</ele><time>2017-06-14T10:02:00Z</time></trkpt><trkpt lat="52.0769459568" lon="-2.0880639274"><ele>17.92</ele><time>2017-06-14T10:02:13Z</time></trkpt><trkpt lat="52.0768923964" lon="-2.0880771708"><ele>17.92</ele><time>2017-06-14T10:02:27Z</time></trkpt><trkpt lat="52.0768240001" lon="-2.0881081838"><ele>16.48</ele><time>2017-06-14T10:02:36Z</time></trkpt><trkpt lat="52.0767794084" lon="-2.0880724769"><ele>20.32</ele><time>2017-06-14T10:02:45Z</time></trkpt><trkpt lat="52.0767733734" lon="-2.0880696271"><ele>16.00</ele><time>2017-06-14T10:02:46Z</time></trkpt><trkpt lat="52.0767670870" lon="-2.0880676154"><ele>17.44</ele><time>2017-06-14T10:02:47Z</time></trkpt><trkpt lat="52.0767339785" lon="-2.0880516898"><ele>19.84</ele><time>2017-06-14T10:02:50Z</time></trkpt><trkpt lat="52.0766732097" lon="-2.0880938508"><ele>16.00</ele><time>2017-06-14T10:02:56Z</time></trkpt><trkpt lat="52.0765470620" lon="-2.0880908333"><ele>18.88</ele><time>2017-06-14T10:03:09Z</time></trkpt><trkpt lat="52.0765147079" lon="-2.0880588144"><ele>17.44</ele><time>2017-06-14T10:03:13Z</time></trkpt><trkpt lat="52.0764743071" lon="-2.0880114567"><ele>17.92</ele><time>2017-06-14T10:03:18Z</time></trkpt><trkpt lat="52.0763811003" lon="-2.0879466645"><ele>18.40</ele><time>2017-06-14T10:03:29Z</time></trkpt><trkpt lat="52.0763729699" lon="-2.0879414678"><ele>17.92</ele><time>2017-06-14T10:03:30Z</time></trkpt><trkpt lat="52.0763131231" lon="-2.0878844708"><ele>17.92</ele><time>2017-06-14T10:03:37Z</time></trkpt><trkpt lat="52.0762752369" lon="-2.0878512785"><ele>17.92</ele><time>2017-06-14T10:03:41Z</time></trkpt><trkpt lat="52.0762352552" lon="-2.0878045075"><ele>19.36</ele><time>2017-06-14T10:03:45Z</time></trkpt><trkpt lat="52.0761521067" lon="-2.0877184253"><ele>17.92</ele><time>2017-06-14T10:03:55Z</time></trkpt><trkpt lat="52.0760832913" lon="-2.0876309182"><ele>18.40</ele><time>2017-06-14T10:04:05Z</time></trkpt><trkpt lat="52.0760414656" lon="-2.0876064431"><ele>17.92</ele><time>2017-06-14T10:04:09Z</time></trkpt><trkpt lat="52.0760124642" lon="-2.0876296610"><ele>18.40</ele><time>2017-06-14T10:04:12Z</time></trkpt><trkpt lat="52.0759034157" lon="-2.0876817964"><ele>19.36</ele><time>2017-06-14T10:04:26Z</time></trkpt><trkpt lat="52.0758760069" lon="-2.0876890887"><ele>18.40</ele><time>2017-06-14T10:04:30Z</time></trkpt><trkpt lat="52.0758763421" lon="-2.0876921900"><ele>17.44</ele><time>2017-06-14T10:04:32Z</time></trkpt><trkpt lat="52.0758595783" lon="-2.0877150726"><ele>18.88</ele><time>2017-06-14T10:04:51Z</time></trkpt><trkpt lat="52.0758483466" lon="-2.0876987278"><ele>18.40</ele><time>2017-06-14T10:05:10Z</time></trkpt><trkpt lat="52.0758252963" lon="-2.0877004042"><ele>18.40</ele><time>2017-06-14T10:05:39Z</time></trkpt><trkpt lat="52.0758247096" lon="-2.0877119713"><ele>17.92</ele><time>2017-06-14T10:06:10Z</time></trkpt><trkpt lat="52.0757926069" lon="-2.0878392085"><ele>16.48</ele><time>2017-06-14T10:06:24Z</time></trkpt><trkpt lat="52.0757908467" lon="-2.0878557209"><ele>17.44</ele><time>2017-06-14T10:06:39Z</time></trkpt><trkpt lat="52.0757750887" lon="-2.0878949482"><ele>18.88</ele><time>2017-06-14T10:06:44Z</time></trkpt><trkpt lat="52.0757633541" lon="-2.0879065152"><ele>17.44</ele><time>2017-06-14T10:06:55Z</time></trkpt><trkpt lat="52.0757514518" lon="-2.0879389532"><ele>18.88</ele><time>2017-06-14T10:06:57Z</time></trkpt><trkpt lat="52.0757278148" lon="-2.0880001411"><ele>16.48</ele><time>2017-06-14T10:07:01Z</time></trkpt><trkpt lat="52.0756443311" lon="-2.0881386101"><ele>17.44</ele><time>2017-06-14T10:07:12Z</time></trkpt><trkpt lat="52.0755567402" lon="-2.0882694516"><ele>18.88</ele><time>2017-06-14T10:07:22Z</time></trkpt><trkpt lat="52.0754166786" lon="-2.0884467289"><ele>17.92</ele><time>2017-06-14T10:07:37Z</time></trkpt><trkpt lat="52.0753910299" lon="-2.0884662587"><ele>17.92</ele><time>2017-06-14T10:07:40Z</time></trkpt><trkpt lat="52.0752758626" lon="-2.0884957630"><ele>18.40</ele><time>2017-06-14T10:07:50Z</time></trkpt><trkpt lat="52.0751523972" lon="-2.0884095132"><ele>17.92</ele><time>2017-06-14T10:08:01Z</time></trkpt><trkpt lat="52.0750933047" lon="-2.0884460583"><ele>19.36</ele><time>2017-06-14T10:08:14Z</time></trkpt><trkpt lat="52.0750679076" lon="-2.0885071624"><ele>18.88</ele><time>2017-06-14T10:08:25Z</time></trkpt><trkpt lat="52.0750703383" lon="-2.0885215793"><ele>17.92</ele><time>2017-06-14T10:08:39Z</time></trkpt><trkpt lat="52.0750665665" lon="-2.0885394327"><ele>18.40</ele><time>2017-06-14T10:08:59Z</time></trkpt><trkpt lat="52.0750461984" lon="-2.0885892212"><ele>18.88</ele><time>2017-06-14T10:09:09Z</time></trkpt><trkpt lat="52.0750461146" lon="-2.0885879640"><ele>13.12</ele><time>2017-06-14T10:09:12Z</time></trkpt><trkpt lat="52.0750457793" lon="-2.0885870419"><ele>22.73</ele><time>2017-06-14T10:09:13Z</time></trkpt><trkpt lat="52.0750454441" lon="-2.0885856170"><ele>18.88</ele><time>2017-06-14T10:09:14Z</time></trkpt><trkpt lat="52.0750347991" lon="-2.0885504130"><ele>18.88</ele><time>2017-06-14T10:09:33Z</time></trkpt><trkpt lat="52.0750244893" lon="-2.0885626506"><ele>18.88</ele><time>2017-06-14T10:09:57Z</time></trkpt><trkpt lat="52.0750352181" lon="-2.0885779057"><ele>17.44</ele><time>2017-06-14T10:10:00Z</time></trkpt><trkpt lat="52.0750819892" lon="-2.0885515865"><ele>17.92</ele><time>2017-06-14T10:10:15Z</time></trkpt><trkpt lat="52.0750715118" lon="-2.0885649975"><ele>17.92</ele><time>2017-06-14T10:10:41Z</time></trkpt><trkpt lat="52.0750737749" lon="-2.0885602199"><ele>10.71</ele><time>2017-06-14T10:10:53Z</time></trkpt><trkpt lat="52.0750736911" lon="-2.0885601360"><ele>26.09</ele><time>2017-06-14T10:10:54Z</time></trkpt><trkpt lat="52.0750736073" lon="-2.0885601360"><ele>18.40</ele><time>2017-06-14T10:10:55Z</time></trkpt><trkpt lat="52.0750691649" lon="-2.0885611419"><ele>14.08</ele><time>2017-06-14T10:11:08Z</time></trkpt><trkpt lat="52.0750656445" lon="-2.0885631535"><ele>18.40</ele><time>2017-06-14T10:11:09Z</time></trkpt><trkpt lat="52.0750657283" lon="-2.0885635726"><ele>22.73</ele><time>2017-06-14T10:11:11Z</time></trkpt><trkpt lat="52.0750662312" lon="-2.0885634050"><ele>17.92</ele><time>2017-06-14T10:11:12Z</time></trkpt><trkpt lat="52.0750715956" lon="-2.0885597169"><ele>17.44</ele><time>2017-06-14T10:11:40Z</time></trkpt><trkpt lat="52.0750718471" lon="-2.0885588787"><ele>9.27</ele><time>2017-06-14T10:11:47Z</time></trkpt><trkpt lat="52.0750720147" lon="-2.0885588787"><ele>20.32</ele><time>2017-06-14T10:11:48Z</time></trkpt><trkpt lat="52.0750725176" lon="-2.0885572024"><ele>17.44</ele><time>2017-06-14T10:11:56Z</time></trkpt><trkpt lat="52.0750751160" lon="-2.0885512512"><ele>17.92</ele><time>2017-06-14T10:12:01Z</time></trkpt><trkpt lat="52.0750840008" lon="-2.0885471441"><ele>17.44</ele><time>2017-06-14T10:12:34Z</time></trkpt><trkpt lat="52.0750827435" lon="-2.0885458868"><ele>17.92</ele><time>2017-06-14T10:13:02Z</time></trkpt><trkpt lat="52.0750814024" lon="-2.0885483176"><ele>16.96</ele><time>2017-06-14T10:13:34Z</time></trkpt><trkpt lat="52.0750803128" lon="-2.0885506645"><ele>17.44</ele><time>2017-06-14T10:14:02Z</time></trkpt><trkpt lat="52.0750773791" lon="-2.0885408577"><ele>17.92</ele><time>2017-06-14T10:14:34Z</time></trkpt><trkpt lat="52.0750782173" lon="-2.0885401033"><ele>22.73</ele><time>2017-06-14T10:14:54Z</time></trkpt><trkpt lat="52.0750780497" lon="-2.0885401871"><ele>17.92</ele><time>2017-06-14T10:14:55Z</time></trkpt><trkpt lat="52.0751060452" lon="-2.0885719545"><ele>17.44</ele><time>2017-06-14T10:15:18Z</time></trkpt><trkpt lat="52.0751037821" lon="-2.0885677636"><ele>16.48</ele><time>2017-06-14T10:15:23Z</time></trkpt><trkpt lat="52.0750917122" lon="-2.0885258541"><ele>17.44</ele><time>2017-06-14T10:15:53Z</time></trkpt><trkpt lat="52.0750935562" lon="-2.0885427855"><ele>17.44</ele><time>2017-06-14T10:16:22Z</time></trkpt><trkpt lat="52.0751049556" lon="-2.0885684341"><ele>17.44</ele><time>2017-06-14T10:16:24Z</time></trkpt><trkpt lat="52.0751008485" lon="-2.0885746367"><ele>16.96</ele><time>2017-06-14T10:16:44Z</time></trkpt><trkpt lat="52.0751000941" lon="-2.0885706134"><ele>17.92</ele><time>2017-06-14T10:16:48Z</time></trkpt><trkpt lat="52.0750923827" lon="-2.0885498263"><ele>28.02</ele><time>2017-06-14T10:16:57Z</time></trkpt><trkpt lat="52.0750881918" lon="-2.0885271952"><ele>17.92</ele><time>2017-06-14T10:16:58Z</time></trkpt><trkpt lat="52.0750891976" lon="-2.0885147899"><ele>17.44</ele><time>2017-06-14T10:17:06Z</time></trkpt><trkpt lat="52.0750724338" lon="-2.0884601399"><ele>18.88</ele><time>2017-06-14T10:17:20Z</time></trkpt><trkpt lat="52.0750138443" lon="-2.0883810148"><ele>17.92</ele><time>2017-06-14T10:17:34Z</time></trkpt><trkpt lat="52.0750145987" lon="-2.0883833617"><ele>23.69</ele><time>2017-06-14T10:17:48Z</time></trkpt><trkpt lat="52.0750148501" lon="-2.0883821882"><ele>18.40</ele><time>2017-06-14T10:17:49Z</time></trkpt><trkpt lat="52.0750534907" lon="-2.0883510076"><ele>17.44</ele><time>2017-06-14T10:17:58Z</time></trkpt><trkpt lat="52.0750499703" lon="-2.0883397758"><ele>17.92</ele><time>2017-06-14T10:18:14Z</time></trkpt><trkpt lat="52.0750390738" lon="-2.0883536059"><ele>16.00</ele><time>2017-06-14T10:18:25Z</time></trkpt><trkpt lat="52.0750175323" lon="-2.0884049032"><ele>17.92</ele><time>2017-06-14T10:18:38Z</time></trkpt><trkpt lat="52.0750086475" lon="-2.0884627383"><ele>17.92</ele><time>2017-06-14T10:18:51Z</time></trkpt><trkpt lat="52.0750073064" lon="-2.0884746406"><ele>18.40</ele><time>2017-06-14T10:18:52Z</time></trkpt><trkpt lat="52.0749871060" lon="-2.0885091741"><ele>17.92</ele><time>2017-06-14T10:19:05Z</time></trkpt><trkpt lat="52.0749808196" lon="-2.0885058213"><ele>17.92</ele><time>2017-06-14T10:19:25Z</time></trkpt><trkpt lat="52.0749790594" lon="-2.0885137841"><ele>17.92</ele><time>2017-06-14T10:19:51Z</time></trkpt><trkpt lat="52.0749907941" lon="-2.0885318890"><ele>17.44</ele><time>2017-06-14T10:20:20Z</time></trkpt><trkpt lat="52.0749954879" lon="-2.0885305479"><ele>15.52</ele><time>2017-06-14T10:20:33Z</time></trkpt><trkpt lat="52.0749955717" lon="-2.0885302126"><ele>19.36</ele><time>2017-06-14T10:20:35Z</time></trkpt><trkpt lat="52.0750044566" lon="-2.0884997025"><ele>17.92</ele><time>2017-06-14T10:20:39Z</time></trkpt><trkpt lat="52.0749977510" lon="-2.0884173922"><ele>16.48</ele><time>2017-06-14T10:20:46Z</time></trkpt><trkpt lat="52.0749957394" lon="-2.0884149615"><ele>16.96</ele><time>2017-06-14T10:21:06Z</time></trkpt><trkpt lat="52.0749975834" lon="-2.0884142071"><ele>16.48</ele><time>2017-06-14T10:21:16Z</time></trkpt><trkpt lat="52.0750020258" lon="-2.0884619001"><ele>16.96</ele><time>2017-06-14T10:21:28Z</time></trkpt><trkpt lat="52.0749989245" lon="-2.0884959307"><ele>17.92</ele><time>2017-06-14T10:21:40Z</time></trkpt><trkpt lat="52.0750039537" lon="-2.0884844474"><ele>17.44</ele><time>2017-06-14T10:21:55Z</time></trkpt><trkpt lat="52.0750047918" lon="-2.0884892251"><ele>16.48</ele><time>2017-06-14T10:22:00Z</time></trkpt><trkpt lat="52.0749814902" lon="-2.0885107666"><ele>17.44</ele><time>2017-06-14T10:22:13Z</time></trkpt><trkpt lat="52.0749831665" lon="-2.0885021333"><ele>17.92</ele><time>2017-06-14T10:22:39Z</time></trkpt><trkpt lat="52.0750158560" lon="-2.0884143747"><ele>17.44</ele><time>2017-06-14T10:22:52Z</time></trkpt><trkpt lat="52.0750338770" lon="-2.0883634966"><ele>17.92</ele><time>2017-06-14T10:22:58Z</time></trkpt><trkpt lat="52.0750461984" lon="-2.0883107744"><ele>17.44</ele><time>2017-06-14T10:23:13Z</time></trkpt><trkpt lat="52.0750496350" lon="-2.0883026440"><ele>17.44</ele><time>2017-06-14T10:23:14Z</time></trkpt><trkpt lat="52.0750578493" lon="-2.0883114450"><ele>8.79</ele><time>2017-06-14T10:23:20Z</time></trkpt><trkpt lat="52.0750570111" lon="-2.0883172285"><ele>22.25</ele><time>2017-06-14T10:23:21Z</time></trkpt><trkpt lat="52.0750591066" lon="-2.0883217547"><ele>19.36</ele><time>2017-06-14T10:23:22Z</time></trkpt><trkpt lat="52.0750591904" lon="-2.0883216709"><ele>17.92</ele><time>2017-06-14T10:23:24Z</time></trkpt><trkpt lat="52.0750522334" lon="-2.0883025602"><ele>17.44</ele><time>2017-06-14T10:23:41Z</time></trkpt><trkpt lat="52.0750583522" lon="-2.0883079246"><ele>17.44</ele><time>2017-06-14T10:23:53Z</time></trkpt><trkpt lat="52.0750570111" lon="-2.0883178990"><ele>16.96</ele><time>2017-06-14T10:24:15Z</time></trkpt><trkpt lat="52.0750556700" lon="-2.0883246884"><ele>17.44</ele><time>2017-06-14T10:24:35Z</time></trkpt><trkpt lat="52.0750523172" lon="-2.0883317292"><ele>17.44</ele><time>2017-06-14T10:24:58Z</time></trkpt><trkpt lat="52.0750508923" lon="-2.0883380994"><ele>17.92</ele><time>2017-06-14T10:25:23Z</time></trkpt><trkpt lat="52.0750525687" lon="-2.0883415360"><ele>17.44</ele><time>2017-06-14T10:25:45Z</time></trkpt><trkpt lat="52.0750491321" lon="-2.0883433800"><ele>17.44</ele><time>2017-06-14T10:26:11Z</time></trkpt><trkpt lat="52.0750504732" lon="-2.0883495826"><ele>17.92</ele><time>2017-06-14T10:26:37Z</time></trkpt><trkpt lat="52.0750074740" lon="-2.0884583797"><ele>17.44</ele><time>2017-06-14T10:26:51Z</time></trkpt><trkpt lat="52.0750057139" lon="-2.0884819329"><ele>17.44</ele><time>2017-06-14T10:27:09Z</time></trkpt><trkpt lat="52.0750009362" lon="-2.0885092579"><ele>18.40</ele><time>2017-06-14T10:27:24Z</time></trkpt><trkpt lat="52.0750030316" lon="-2.0885168016"><ele>14.56</ele><time>2017-06-14T10:27:45Z</time></trkpt><trkpt lat="52.0750022773" lon="-2.0885106828"><ele>18.88</ele><time>2017-06-14T10:27:46Z</time></trkpt><trkpt lat="52.0749906264" lon="-2.0885131136"><ele>16.96</ele><time>2017-06-14T10:27:50Z</time></trkpt><trkpt lat="52.0749951527" lon="-2.0885546040"><ele>13.60</ele><time>2017-06-14T10:28:02Z</time></trkpt><trkpt lat="52.0749932248" lon="-2.0885440428"><ele>17.92</ele><time>2017-06-14T10:28:03Z</time></trkpt><trkpt lat="52.0749926381" lon="-2.0884939190"><ele>17.44</ele><time>2017-06-14T10:28:09Z</time></trkpt><trkpt lat="52.0749798138" lon="-2.0884748083"><ele>16.96</ele><time>2017-06-14T10:28:25Z</time></trkpt><trkpt lat="52.0749045443" lon="-2.0884475671"><ele>17.44</ele><time>2017-06-14T10:28:39Z</time></trkpt><trkpt lat="52.0748128463" lon="-2.0884302165"><ele>19.36</ele><time>2017-06-14T10:28:50Z</time></trkpt><trkpt lat="52.0747332182" lon="-2.0884038974"><ele>19.36</ele><time>2017-06-14T10:29:01Z</time></trkpt><trkpt lat="52.0746917278" lon="-2.0883978624"><ele>18.40</ele><time>2017-06-14T10:29:16Z</time></trkpt><trkpt lat="52.0746612176" lon="-2.0884341560"><ele>18.88</ele><time>2017-06-14T10:29:28Z</time></trkpt><trkpt lat="52.0746623911" lon="-2.0884239301"><ele>18.88</ele><time>2017-06-14T10:29:29Z</time></trkpt><trkpt lat="52.0746122673" lon="-2.0883070026"><ele>17.44</ele><time>2017-06-14T10:29:40Z</time></trkpt><trkpt lat="52.0746016223" lon="-2.0882805996"><ele>18.40</ele><time>2017-06-14T10:29:42Z</time></trkpt><trkpt lat="52.0745659992" lon="-2.0882343315"><ele>16.48</ele><time>2017-06-14T10:29:46Z</time></trkpt><trkpt lat="52.0744243450" lon="-2.0881011430"><ele>19.84</ele><time>2017-06-14T10:30:04Z</time></trkpt><trkpt lat="52.0743397716" lon="-2.0882237703"><ele>20.32</ele><time>2017-06-14T10:30:19Z</time></trkpt><trkpt lat="52.0742558688" lon="-2.0883954316"><ele>21.29</ele><time>2017-06-14T10:30:33Z</time></trkpt><trkpt lat="52.0742437989" lon="-2.0884112734"><ele>20.81</ele><time>2017-06-14T10:30:35Z</time></trkpt><trkpt lat="52.0741573814" lon="-2.0885167178"><ele>22.73</ele><time>2017-06-14T10:30:51Z</time></trkpt><trkpt lat="52.0741249435" lon="-2.0886447094"><ele>21.77</ele><time>2017-06-14T10:31:03Z</time></trkpt><trkpt lat="52.0740981214" lon="-2.0887954999"><ele>20.81</ele><time>2017-06-14T10:31:15Z</time></trkpt><trkpt lat="52.0740793459" lon="-2.0888716076"><ele>21.77</ele><time>2017-06-14T10:31:20Z</time></trkpt><trkpt lat="52.0740624145" lon="-2.0889182948"><ele>20.81</ele><time>2017-06-14T10:31:23Z</time></trkpt><trkpt lat="52.0740438066" lon="-2.0889664907"><ele>16.48</ele><time>2017-06-14T10:31:27Z</time></trkpt><trkpt lat="52.0740441419" lon="-2.0889659878"><ele>22.73</ele><time>2017-06-14T10:31:28Z</time></trkpt><trkpt lat="52.0740445610" lon="-2.0889641438"><ele>28.50</ele><time>2017-06-14T10:31:34Z</time></trkpt><trkpt lat="52.0740358438" lon="-2.0890316181"><ele>24.17</ele><time>2017-06-14T10:31:37Z</time></trkpt><trkpt lat="52.0740230195" lon="-2.0890658163"><ele>21.29</ele><time>2017-06-14T10:31:40Z</time></trkpt><trkpt lat="52.0740041602" lon="-2.0891521499"><ele>24.17</ele><time>2017-06-14T10:31:46Z</time></trkpt><trkpt lat="52.0739905816" lon="-2.0891949814"><ele>22.25</ele><time>2017-06-14T10:31:49Z</time></trkpt><trkpt lat="52.0739448164" lon="-2.0893036947"><ele>24.65</ele><time>2017-06-14T10:31:56Z</time></trkpt><trkpt lat="52.0738895796" lon="-2.0894829836"><ele>25.13</ele><time>2017-06-14T10:32:08Z</time></trkpt><trkpt lat="52.0738545433" lon="-2.0895972289"><ele>24.65</ele><time>2017-06-14T10:32:17Z</time></trkpt><trkpt lat="52.0738390367" lon="-2.0896528848"><ele>24.65</ele><time>2017-06-14T10:32:21Z</time></trkpt><trkpt lat="52.0738162380" lon="-2.0897071157"><ele>24.17</ele><time>2017-06-14T10:32:25Z</time></trkpt><trkpt lat="52.0738066826" lon="-2.0897286572"><ele>25.61</ele><time>2017-06-14T10:32:27Z</time></trkpt><trkpt lat="52.0737634320" lon="-2.0898602530"><ele>26.57</ele><time>2017-06-14T10:32:38Z</time></trkpt><trkpt lat="52.0737386215" lon="-2.0899766777"><ele>24.65</ele><time>2017-06-14T10:32:47Z</time></trkpt><trkpt lat="52.0737276413" lon="-2.0900155697"><ele>27.05</ele><time>2017-06-14T10:32:50Z</time></trkpt><trkpt lat="52.0736993104" lon="-2.0901050884"><ele>27.05</ele><time>2017-06-14T10:33:01Z</time></trkpt><trkpt lat="52.0736947842" lon="-2.0901222713"><ele>28.50</ele><time>2017-06-14T10:33:04Z</time></trkpt><trkpt lat="52.0736616757" lon="-2.0902212616"><ele>28.02</ele><time>2017-06-14T10:33:21Z</time></trkpt><trkpt lat="52.0736518688" lon="-2.0902569685"><ele>29.46</ele><time>2017-06-14T10:33:32Z</time></trkpt><trkpt lat="52.0736273099" lon="-2.0903568808"><ele>28.98</ele><time>2017-06-14T10:33:40Z</time></trkpt><trkpt lat="52.0736209396" lon="-2.0904051606"><ele>28.98</ele><time>2017-06-14T10:34:03Z</time></trkpt><trkpt lat="52.0736138988" lon="-2.0904222596"><ele>28.98</ele><time>2017-06-14T10:34:29Z</time></trkpt><trkpt lat="52.0736147370" lon="-2.0904296357"><ele>29.46</ele><time>2017-06-14T10:35:03Z</time></trkpt><trkpt lat="52.0736064389" lon="-2.0904716291"><ele>30.90</ele><time>2017-06-14T10:35:07Z</time></trkpt><trkpt lat="52.0735830534" lon="-2.0904895663"><ele>28.50</ele><time>2017-06-14T10:35:10Z</time></trkpt><trkpt lat="52.0735512860" lon="-2.0905567054"><ele>28.98</ele><time>2017-06-14T10:35:22Z</time></trkpt><trkpt lat="52.0735418145" lon="-2.0905761514"><ele>29.46</ele><time>2017-06-14T10:35:28Z</time></trkpt><trkpt lat="52.0735349413" lon="-2.0907223318"><ele>28.50</ele><time>2017-06-14T10:35:36Z</time></trkpt><trkpt lat="52.0735280681" lon="-2.0909225754"><ele>29.46</ele><time>2017-06-14T10:35:46Z</time></trkpt><trkpt lat="52.0735185128" lon="-2.0910091605"><ele>29.46</ele><time>2017-06-14T10:35:50Z</time></trkpt><trkpt lat="52.0735179260" lon="-2.0910571888"><ele>28.98</ele><time>2017-06-14T10:35:53Z</time></trkpt><trkpt lat="52.0735095441" lon="-2.0910944883"><ele>28.02</ele><time>2017-06-14T10:35:55Z</time></trkpt><trkpt lat="52.0735136513" lon="-2.0911369845"><ele>28.98</ele><time>2017-06-14T10:35:57Z</time></trkpt><trkpt lat="52.0734994020" lon="-2.0913338754"><ele>29.46</ele><time>2017-06-14T10:36:07Z</time></trkpt><trkpt lat="52.0734915230" lon="-2.0915552415"><ele>29.46</ele><time>2017-06-14T10:36:19Z</time></trkpt><trkpt lat="52.0734888408" lon="-2.0915971510"><ele>28.50</ele><time>2017-06-14T10:36:22Z</time></trkpt><trkpt lat="52.0734907687" lon="-2.0917699859"><ele>28.02</ele><time>2017-06-14T10:36:31Z</time></trkpt><trkpt lat="52.0734827220" lon="-2.0918104704"><ele>28.02</ele><time>2017-06-14T10:36:33Z</time></trkpt><trkpt lat="52.0734753460" lon="-2.0919589978"><ele>28.02</ele><time>2017-06-14T10:36:41Z</time></trkpt><trkpt lat="52.0734750107" lon="-2.0919957943"><ele>26.57</ele><time>2017-06-14T10:36:43Z</time></trkpt><trkpt lat="52.0734320953" lon="-2.0922423899"><ele>27.53</ele><time>2017-06-14T10:36:57Z</time></trkpt><trkpt lat="52.0734288264" lon="-2.0922583994"><ele>26.09</ele><time>2017-06-14T10:36:58Z</time></trkpt><trkpt lat="52.0733984001" lon="-2.0924470760"><ele>25.13</ele><time>2017-06-14T10:37:10Z</time></trkpt><trkpt lat="52.0733455941" lon="-2.0926491637"><ele>23.69</ele><time>2017-06-14T10:37:26Z</time></trkpt><trkpt lat="52.0732890163" lon="-2.0928327274"><ele>23.21</ele><time>2017-06-14T10:37:40Z</time></trkpt><trkpt lat="52.0732732583" lon="-2.0928644948"><ele>21.77</ele><time>2017-06-14T10:37:43Z</time></trkpt><trkpt lat="52.0732554886" lon="-2.0928939991"><ele>21.77</ele><time>2017-06-14T10:37:45Z</time></trkpt><trkpt lat="52.0732208714" lon="-2.0929773990"><ele>20.81</ele><time>2017-06-14T10:37:50Z</time></trkpt><trkpt lat="52.0731741004" lon="-2.0930980146"><ele>20.32</ele><time>2017-06-14T10:37:57Z</time></trkpt><trkpt lat="52.0731242280" lon="-2.0932164509"><ele>19.84</ele><time>2017-06-14T10:38:05Z</time></trkpt><trkpt lat="52.0731105655" lon="-2.0932635572"><ele>19.84</ele><time>2017-06-14T10:38:08Z</time></trkpt><trkpt lat="52.0730873477" lon="-2.0933166984"><ele>21.29</ele><time>2017-06-14T10:38:11Z</time></trkpt><trkpt lat="52.0730589330" lon="-2.0933814067"><ele>20.81</ele><time>2017-06-14T10:38:16Z</time></trkpt><trkpt lat="52.0729751140" lon="-2.0935846679"><ele>18.88</ele><time>2017-06-14T10:38:28Z</time></trkpt><trkpt lat="52.0729697496" lon="-2.0936259069"><ele>20.81</ele><time>2017-06-14T10:38:30Z</time></trkpt><trkpt lat="52.0729460288" lon="-2.0937979873"><ele>22.25</ele><time>2017-06-14T10:38:42Z</time></trkpt><trkpt lat="52.0729394071" lon="-2.0938100573"><ele>22.25</ele><time>2017-06-14T10:38:43Z</time></trkpt><trkpt lat="52.0729296841" lon="-2.0938311797"><ele>20.81</ele><time>2017-06-14T10:38:45Z</time></trkpt><trkpt lat="52.0729030296" lon="-2.0939324331"><ele>24.17</ele><time>2017-06-14T10:38:52Z</time></trkpt><trkpt lat="52.0728863496" lon="-2.0941605885"><ele>24.17</ele><time>2017-06-14T10:39:06Z</time></trkpt><trkpt lat="52.0728513971" lon="-2.0941413939"><ele>23.69</ele><time>2017-06-14T10:39:20Z</time></trkpt><trkpt lat="52.0728513133" lon="-2.0941413101"><ele>17.44</ele><time>2017-06-14T10:39:21Z</time></trkpt><trkpt lat="52.0728512295" lon="-2.0941412263"><ele>19.84</ele><time>2017-06-14T10:39:22Z</time></trkpt><trkpt lat="52.0728483796" lon="-2.0941371191"><ele>24.65</ele><time>2017-06-14T10:39:23Z</time></trkpt><trkpt lat="52.0728480443" lon="-2.0941372029"><ele>28.02</ele><time>2017-06-14T10:39:24Z</time></trkpt><trkpt lat="52.0728474576" lon="-2.0941370353"><ele>24.17</ele><time>2017-06-14T10:39:25Z</time></trkpt><trkpt lat="52.0728413388" lon="-2.0941334311"><ele>21.29</ele><time>2017-06-14T10:39:37Z</time></trkpt><trkpt lat="52.0728570968" lon="-2.0941656176"><ele>25.13</ele><time>2017-06-14T10:39:39Z</time></trkpt><trkpt lat="52.0728741121" lon="-2.0941698086"><ele>24.17</ele><time>2017-06-14T10:39:53Z</time></trkpt><trkpt lat="52.0728798956" lon="-2.0941783581"><ele>24.17</ele><time>2017-06-14T10:39:59Z</time></trkpt><trkpt lat="52.0728992578" lon="-2.0942244586"><ele>25.61</ele><time>2017-06-14T10:40:03Z</time></trkpt><trkpt lat="52.0729028620" lon="-2.0943449903"><ele>28.02</ele><time>2017-06-14T10:40:09Z</time></trkpt><trkpt lat="52.0729003474" lon="-2.0943613350"><ele>24.17</ele><time>2017-06-14T10:40:10Z</time></trkpt><trkpt lat="52.0729026943" lon="-2.0943952817"><ele>26.09</ele><time>2017-06-14T10:40:12Z</time></trkpt><trkpt lat="52.0728972461" lon="-2.0944599062"><ele>24.65</ele><time>2017-06-14T10:40:15Z</time></trkpt><trkpt lat="52.0728881098" lon="-2.0945400372"><ele>26.57</ele><time>2017-06-14T10:40:18Z</time></trkpt><trkpt lat="52.0728920493" lon="-2.0946747344"><ele>27.05</ele><time>2017-06-14T10:40:23Z</time></trkpt><trkpt lat="52.0728988387" lon="-2.0947693661"><ele>28.50</ele><time>2017-06-14T10:40:28Z</time></trkpt><trkpt lat="52.0728908759" lon="-2.0950597990"><ele>28.98</ele><time>2017-06-14T10:40:42Z</time></trkpt><trkpt lat="52.0728942286" lon="-2.0952270180"><ele>29.46</ele><time>2017-06-14T10:40:50Z</time></trkpt><trkpt lat="52.0729085617" lon="-2.0955144335"><ele>29.94</ele><time>2017-06-14T10:41:03Z</time></trkpt><trkpt lat="52.0729119144" lon="-2.0955413394"><ele>29.46</ele><time>2017-06-14T10:41:04Z</time></trkpt><trkpt lat="52.0729087293" lon="-2.0955828298"><ele>30.42</ele><time>2017-06-14T10:41:06Z</time></trkpt><trkpt lat="52.0728945639" lon="-2.0957794692"><ele>30.90</ele><time>2017-06-14T10:41:15Z</time></trkpt><trkpt lat="52.0728801470" lon="-2.0958644617"><ele>29.94</ele><time>2017-06-14T10:41:19Z</time></trkpt><trkpt lat="52.0728864335" lon="-2.0959014259"><ele>30.90</ele><time>2017-06-14T10:41:21Z</time></trkpt><trkpt lat="52.0728866011" lon="-2.0959865861"><ele>31.38</ele><time>2017-06-14T10:41:26Z</time></trkpt><trkpt lat="52.0728853438" lon="-2.0960234664"><ele>30.90</ele><time>2017-06-14T10:41:28Z</time></trkpt><trkpt lat="52.0728832483" lon="-2.0960426610"><ele>31.38</ele><time>2017-06-14T10:41:29Z</time></trkpt><trkpt lat="52.0728745311" lon="-2.0962496940"><ele>31.86</ele><time>2017-06-14T10:41:39Z</time></trkpt><trkpt lat="52.0728740282" lon="-2.0963083673"><ele>32.34</ele><time>2017-06-14T10:41:44Z</time></trkpt><trkpt lat="52.0728617907" lon="-2.0964556374"><ele>30.90</ele><time>2017-06-14T10:41:56Z</time></trkpt><trkpt lat="52.0728570130" lon="-2.0967107825"><ele>32.82</ele><time>2017-06-14T10:42:09Z</time></trkpt><trkpt lat="52.0728374831" lon="-2.0968985371"><ele>32.82</ele><time>2017-06-14T10:42:21Z</time></trkpt><trkpt lat="52.0728366449" lon="-2.0969325677"><ele>34.26</ele><time>2017-06-14T10:42:23Z</time></trkpt><trkpt lat="52.0728417579" lon="-2.0969924983"><ele>33.30</ele><time>2017-06-14T10:42:26Z</time></trkpt><trkpt lat="52.0728276763" lon="-2.0970907342"><ele>34.26</ele><time>2017-06-14T10:42:42Z</time></trkpt><trkpt lat="52.0728201326" lon="-2.0971272793"><ele>33.30</ele><time>2017-06-14T10:43:00Z</time></trkpt><trkpt lat="52.0728169475" lon="-2.0971649978"><ele>34.26</ele><time>2017-06-14T10:43:02Z</time></trkpt><trkpt lat="52.0728023630" lon="-2.0972447935"><ele>34.26</ele><time>2017-06-14T10:43:08Z</time></trkpt><trkpt lat="52.0727991778" lon="-2.0973418560"><ele>34.74</ele><time>2017-06-14T10:43:14Z</time></trkpt><trkpt lat="52.0728040393" lon="-2.0974916406"><ele>34.74</ele><time>2017-06-14T10:43:26Z</time></trkpt><trkpt lat="52.0728003513" lon="-2.0975599531"><ele>33.78</ele><time>2017-06-14T10:43:30Z</time></trkpt><trkpt lat="52.0727835875" lon="-2.0977841690"><ele>35.23</ele><time>2017-06-14T10:43:43Z</time></trkpt><trkpt lat="52.0728016924" lon="-2.0978938881"><ele>35.71</ele><time>2017-06-14T10:43:55Z</time></trkpt><trkpt lat="52.0727867726" lon="-2.0979447663"><ele>35.71</ele><time>2017-06-14T10:44:02Z</time></trkpt><trkpt lat="52.0727818273" lon="-2.0979935490"><ele>34.26</ele><time>2017-06-14T10:44:05Z</time></trkpt><trkpt lat="52.0727586094" lon="-2.0982035156"><ele>36.19</ele><time>2017-06-14T10:44:19Z</time></trkpt><trkpt lat="52.0727576036" lon="-2.0982345287"><ele>36.19</ele><time>2017-06-14T10:44:21Z</time></trkpt><trkpt lat="52.0727451146" lon="-2.0983673818"><ele>36.19</ele><time>2017-06-14T10:44:29Z</time></trkpt><trkpt lat="52.0727424324" lon="-2.0984010771"><ele>36.19</ele><time>2017-06-14T10:44:31Z</time></trkpt><trkpt lat="52.0727258362" lon="-2.0984967984"><ele>37.63</ele><time>2017-06-14T10:44:36Z</time></trkpt><trkpt lat="52.0726939011" lon="-2.0987188350"><ele>37.63</ele><time>2017-06-14T10:44:50Z</time></trkpt><trkpt lat="52.0726828370" lon="-2.0987842977"><ele>36.67</ele><time>2017-06-14T10:44:54Z</time></trkpt><trkpt lat="52.0726527460" lon="-2.0990344975"><ele>38.11</ele><time>2017-06-14T10:45:10Z</time></trkpt><trkpt lat="52.0726211462" lon="-2.0991960168"><ele>38.59</ele><time>2017-06-14T10:45:21Z</time></trkpt><trkpt lat="52.0726134349" lon="-2.0992472302"><ele>39.07</ele><time>2017-06-14T10:45:24Z</time></trkpt><trkpt lat="52.0726109203" lon="-2.0992836915"><ele>39.07</ele><time>2017-06-14T10:45:26Z</time></trkpt><trkpt lat="52.0726018678" lon="-2.0993293729"><ele>38.59</ele><time>2017-06-14T10:45:29Z</time></trkpt><trkpt lat="52.0725744590" lon="-2.0995210670"><ele>39.55</ele><time>2017-06-14T10:45:41Z</time></trkpt><trkpt lat="52.0725703519" lon="-2.0995556004"><ele>38.11</ele><time>2017-06-14T10:45:43Z</time></trkpt><trkpt lat="52.0725472178" lon="-2.0998107456"><ele>39.55</ele><time>2017-06-14T10:45:58Z</time></trkpt><trkpt lat="52.0725499000" lon="-2.0999839157"><ele>40.51</ele><time>2017-06-14T10:46:09Z</time></trkpt><trkpt lat="52.0725468826" lon="-2.1000969037"><ele>40.99</ele><time>2017-06-14T10:46:16Z</time></trkpt><trkpt lat="52.0725459605" lon="-2.1001408249"><ele>40.99</ele><time>2017-06-14T10:46:19Z</time></trkpt><trkpt lat="52.0725504030" lon="-2.1001707483"><ele>41.47</ele><time>2017-06-14T10:46:21Z</time></trkpt><trkpt lat="52.0725462120" lon="-2.1002017614"><ele>40.99</ele><time>2017-06-14T10:46:23Z</time></trkpt><trkpt lat="52.0725648198" lon="-2.1002943814"><ele>41.95</ele><time>2017-06-14T10:46:34Z</time></trkpt><trkpt lat="52.0725729503" lon="-2.1004109737"><ele>41.95</ele><time>2017-06-14T10:46:41Z</time></trkpt><trkpt lat="52.0725820865" lon="-2.1004638635"><ele>41.47</ele><time>2017-06-14T10:46:44Z</time></trkpt><trkpt lat="52.0726031251" lon="-2.1006987244"><ele>42.92</ele><time>2017-06-14T10:46:58Z</time></trkpt><trkpt lat="52.0726128481" lon="-2.1007963736"><ele>43.40</ele><time>2017-06-14T10:47:04Z</time></trkpt><trkpt lat="52.0726173744" lon="-2.1008718945"><ele>42.92</ele><time>2017-06-14T10:47:08Z</time></trkpt><trkpt lat="52.0726430230" lon="-2.1010001376"><ele>43.40</ele><time>2017-06-14T10:47:17Z</time></trkpt><trkpt lat="52.0726659894" lon="-2.1010725573"><ele>42.92</ele><time>2017-06-14T10:47:22Z</time></trkpt><trkpt lat="52.0726753771" lon="-2.1011482459"><ele>43.40</ele><time>2017-06-14T10:47:27Z</time></trkpt><trkpt lat="52.0726861060" lon="-2.1011940110"><ele>42.92</ele><time>2017-06-14T10:47:30Z</time></trkpt><trkpt lat="52.0727343857" lon="-2.1013874654"><ele>43.40</ele><time>2017-06-14T10:47:42Z</time></trkpt><trkpt lat="52.0727893710" lon="-2.1016336419"><ele>44.84</ele><time>2017-06-14T10:47:57Z</time></trkpt><trkpt lat="52.0728101581" lon="-2.1017043851"><ele>43.40</ele><time>2017-06-14T10:48:04Z</time></trkpt><trkpt lat="52.0728521515" lon="-2.1018659044"><ele>44.36</ele><time>2017-06-14T10:48:14Z</time></trkpt><trkpt lat="52.0728640538" lon="-2.1019842569"><ele>44.36</ele><time>2017-06-14T10:48:20Z</time></trkpt><trkpt lat="52.0728837512" lon="-2.1021037828"><ele>44.84</ele><time>2017-06-14T10:48:27Z</time></trkpt><trkpt lat="52.0729050413" lon="-2.1022594348"><ele>45.80</ele><time>2017-06-14T10:48:36Z</time></trkpt><trkpt lat="52.0729067177" lon="-2.1023012605"><ele>45.32</ele><time>2017-06-14T10:48:39Z</time></trkpt><trkpt lat="52.0729193743" lon="-2.1023318544"><ele>46.28</ele><time>2017-06-14T10:48:41Z</time></trkpt><trkpt lat="52.0729384851" lon="-2.1023839060"><ele>44.84</ele><time>2017-06-14T10:48:45Z</time></trkpt><trkpt lat="52.0729444362" lon="-2.1024619415"><ele>45.32</ele><time>2017-06-14T10:48:49Z</time></trkpt><trkpt lat="52.0729476213" lon="-2.1025776118"><ele>44.84</ele><time>2017-06-14T10:48:55Z</time></trkpt><trkpt lat="52.0729600266" lon="-2.1027313359"><ele>46.28</ele><time>2017-06-14T10:49:07Z</time></trkpt><trkpt lat="52.0729637146" lon="-2.1028187592"><ele>45.80</ele><time>2017-06-14T10:49:13Z</time></trkpt><trkpt lat="52.0729648042" lon="-2.1029835474"><ele>45.80</ele><time>2017-06-14T10:49:22Z</time></trkpt><trkpt lat="52.0729609486" lon="-2.1030193381"><ele>46.76</ele><time>2017-06-14T10:49:24Z</time></trkpt><trkpt lat="52.0729404967" lon="-2.1031003073"><ele>45.32</ele><time>2017-06-14T10:49:32Z</time></trkpt><trkpt lat="52.0728788897" lon="-2.1031258721"><ele>46.28</ele><time>2017-06-14T10:49:45Z</time></trkpt><trkpt lat="52.0728477929" lon="-2.1031339187"><ele>46.28</ele><time>2017-06-14T10:50:13Z</time></trkpt><trkpt lat="52.0727545023" lon="-2.1032106131"><ele>45.32</ele><time>2017-06-14T10:50:21Z</time></trkpt><trkpt lat="52.0727282669" lon="-2.1032631677"><ele>46.76</ele><time>2017-06-14T10:50:24Z</time></trkpt><trkpt lat="52.0725636464" lon="-2.1034458093"><ele>45.32</ele><time>2017-06-14T10:50:37Z</time></trkpt><trkpt lat="52.0724241715" lon="-2.1035929956"><ele>45.32</ele><time>2017-06-14T10:50:50Z</time></trkpt><trkpt lat="52.0723941643" lon="-2.1036138665"><ele>45.80</ele><time>2017-06-14T10:50:52Z</time></trkpt><trkpt lat="52.0723677613" lon="-2.1036483999"><ele>45.32</ele><time>2017-06-14T10:50:55Z</time></trkpt><trkpt lat="52.0723307133" lon="-2.1036748867"><ele>45.32</ele><time>2017-06-14T10:50:59Z</time></trkpt><trkpt lat="52.0721632428" lon="-2.1038380824"><ele>45.80</ele><time>2017-06-14T10:51:13Z</time></trkpt><trkpt lat="52.0721158851" lon="-2.1039066464"><ele>45.80</ele><time>2017-06-14T10:51:17Z</time></trkpt><trkpt lat="52.0720790047" lon="-2.1039199736"><ele>45.80</ele><time>2017-06-14T10:51:20Z</time></trkpt><trkpt lat="52.0719038229" lon="-2.1040788107"><ele>45.32</ele><time>2017-06-14T10:51:34Z</time></trkpt><trkpt lat="52.0718063414" lon="-2.1041897032"><ele>45.80</ele><time>2017-06-14T10:51:45Z</time></trkpt><trkpt lat="52.0718018152" lon="-2.1041805670"><ele>46.28</ele><time>2017-06-14T10:51:52Z</time></trkpt><trkpt lat="52.0718017314" lon="-2.1041798964"><ele>46.28</ele><time>2017-06-14T10:51:53Z</time></trkpt><trkpt lat="52.0717396215" lon="-2.1042875201"><ele>45.32</ele><time>2017-06-14T10:52:06Z</time></trkpt><trkpt lat="52.0717107039" lon="-2.1042791381"><ele>44.84</ele><time>2017-06-14T10:52:19Z</time></trkpt><trkpt lat="52.0716910902" lon="-2.1043191198"><ele>44.36</ele><time>2017-06-14T10:52:33Z</time></trkpt><trkpt lat="52.0716950297" lon="-2.1043539047"><ele>45.32</ele><time>2017-06-14T10:52:35Z</time></trkpt><trkpt lat="52.0716974605" lon="-2.1043833252"><ele>44.36</ele><time>2017-06-14T10:52:37Z</time></trkpt><trkpt lat="52.0716725662" lon="-2.1045146696"><ele>43.88</ele><time>2017-06-14T10:52:45Z</time></trkpt><trkpt lat="52.0716691297" lon="-2.1046541445"><ele>44.36</ele><time>2017-06-14T10:52:55Z</time></trkpt><trkpt lat="52.0716615021" lon="-2.1046895161"><ele>45.32</ele><time>2017-06-14T10:52:57Z</time></trkpt><trkpt lat="52.0716418047" lon="-2.1048776060"><ele>44.36</ele><time>2017-06-14T10:53:09Z</time></trkpt><trkpt lat="52.0716293994" lon="-2.1050510276"><ele>44.36</ele><time>2017-06-14T10:53:20Z</time></trkpt><trkpt lat="52.0715770125" lon="-2.1052560490"><ele>44.84</ele><time>2017-06-14T10:53:34Z</time></trkpt><trkpt lat="52.0715516154" lon="-2.1053624991"><ele>43.88</ele><time>2017-06-14T10:53:42Z</time></trkpt><trkpt lat="52.0715445746" lon="-2.1054003853"><ele>44.36</ele><time>2017-06-14T10:53:44Z</time></trkpt><trkpt lat="52.0715308283" lon="-2.1055080928"><ele>43.88</ele><time>2017-06-14T10:53:50Z</time></trkpt><trkpt lat="52.0715181716" lon="-2.1055654250"><ele>44.36</ele><time>2017-06-14T10:53:54Z</time></trkpt><trkpt lat="52.0715047605" lon="-2.1057649143"><ele>44.36</ele><time>2017-06-14T10:54:07Z</time></trkpt><trkpt lat="52.0715083648" lon="-2.1058430336"><ele>43.88</ele><time>2017-06-14T10:54:20Z</time></trkpt><trkpt lat="52.0715149026" lon="-2.1059173811"><ele>43.88</ele><time>2017-06-14T10:54:41Z</time></trkpt><trkpt lat="52.0715421438" lon="-2.1060826723"><ele>43.40</ele><time>2017-06-14T10:54:52Z</time></trkpt><trkpt lat="52.0715191774" lon="-2.1062225662"><ele>42.92</ele><time>2017-06-14T10:55:02Z</time></trkpt><trkpt lat="52.0714412257" lon="-2.1064399928"><ele>42.92</ele><time>2017-06-14T10:55:15Z</time></trkpt><trkpt lat="52.0714376215" lon="-2.1064554155"><ele>43.40</ele><time>2017-06-14T10:55:16Z</time></trkpt><trkpt lat="52.0713667106" lon="-2.1066544019"><ele>42.92</ele><time>2017-06-14T10:55:31Z</time></trkpt><trkpt lat="52.0713378768" lon="-2.1066965628"><ele>42.92</ele><time>2017-06-14T10:55:36Z</time></trkpt><trkpt lat="52.0713055227" lon="-2.1067608520"><ele>42.92</ele><time>2017-06-14T10:55:41Z</time></trkpt><trkpt lat="52.0712206978" lon="-2.1069470979"><ele>42.92</ele><time>2017-06-14T10:55:57Z</time></trkpt><trkpt lat="52.0711223781" lon="-2.1071182564"><ele>42.44</ele><time>2017-06-14T10:56:10Z</time></trkpt><trkpt lat="52.0710321050" lon="-2.1071990579"><ele>41.95</ele><time>2017-06-14T10:56:21Z</time></trkpt><trkpt lat="52.0708903670" lon="-2.1072331723"><ele>41.95</ele><time>2017-06-14T10:56:33Z</time></trkpt><trkpt lat="52.0708258264" lon="-2.1073580626"><ele>40.51</ele><time>2017-06-14T10:56:42Z</time></trkpt><trkpt lat="52.0707943104" lon="-2.1074936818"><ele>40.51</ele><time>2017-06-14T10:56:52Z</time></trkpt><trkpt lat="52.0707716793" lon="-2.1075632516"><ele>40.03</ele><time>2017-06-14T10:57:08Z</time></trkpt><trkpt lat="52.0707627945" lon="-2.1076132078"><ele>40.51</ele><time>2017-06-14T10:57:12Z</time></trkpt><trkpt lat="52.0707337931" lon="-2.1078150440"><ele>39.07</ele><time>2017-06-14T10:57:25Z</time></trkpt><trkpt lat="52.0707137603" lon="-2.1079627331"><ele>39.07</ele><time>2017-06-14T10:57:34Z</time></trkpt><trkpt lat="52.0706940629" lon="-2.1081006154"><ele>39.07</ele><time>2017-06-14T10:57:42Z</time></trkpt><trkpt lat="52.0706778858" lon="-2.1083260886"><ele>38.11</ele><time>2017-06-14T10:57:55Z</time></trkpt><trkpt lat="52.0706728566" lon="-2.1083755419"><ele>38.11</ele><time>2017-06-14T10:58:06Z</time></trkpt><trkpt lat="52.0706525724" lon="-2.1085052099"><ele>38.11</ele><time>2017-06-14T10:58:16Z</time></trkpt><trkpt lat="52.0706519857" lon="-2.1085711755"><ele>37.63</ele><time>2017-06-14T10:58:20Z</time></trkpt><trkpt lat="52.0706391614" lon="-2.1087067109"><ele>36.67</ele><time>2017-06-14T10:58:28Z</time></trkpt><trkpt lat="52.0706118364" lon="-2.1088572498"><ele>36.67</ele><time>2017-06-14T10:58:36Z</time></trkpt><trkpt lat="52.0705799852" lon="-2.1089936234"><ele>35.71</ele><time>2017-06-14T10:58:44Z</time></trkpt><trkpt lat="52.0705789793" lon="-2.1090529673"><ele>36.19</ele><time>2017-06-14T10:58:48Z</time></trkpt><trkpt lat="52.0705753751" lon="-2.1091147419"><ele>35.23</ele><time>2017-06-14T10:58:52Z</time></trkpt><trkpt lat="52.0705626346" lon="-2.1092235390"><ele>35.71</ele><time>2017-06-14T10:58:59Z</time></trkpt><trkpt lat="52.0705593657" lon="-2.1092708129"><ele>35.71</ele><time>2017-06-14T10:59:02Z</time></trkpt><trkpt lat="52.0705337171" lon="-2.1094822045"><ele>34.74</ele><time>2017-06-14T10:59:14Z</time></trkpt><trkpt lat="52.0705276821" lon="-2.1096013952"><ele>34.74</ele><time>2017-06-14T10:59:26Z</time></trkpt><trkpt lat="52.0705215633" lon="-2.1096863877"><ele>34.26</ele><time>2017-06-14T10:59:41Z</time></trkpt><trkpt lat="52.0705079008" lon="-2.1097442228"><ele>34.26</ele><time>2017-06-14T10:59:45Z</time></trkpt><trkpt lat="52.0704908855" lon="-2.1098577138"><ele>33.78</ele><time>2017-06-14T10:59:58Z</time></trkpt><trkpt lat="52.0704969205" lon="-2.1098445542"><ele>33.78</ele><time>2017-06-14T11:00:21Z</time></trkpt><trkpt lat="52.0704767201" lon="-2.1099754795"><ele>33.30</ele><time>2017-06-14T11:00:38Z</time></trkpt><trkpt lat="52.0704646502" lon="-2.1100615617"><ele>32.82</ele><time>2017-06-14T11:00:44Z</time></trkpt><trkpt lat="52.0704540052" lon="-2.1101063211"><ele>33.30</ele><time>2017-06-14T11:00:47Z</time></trkpt><trkpt lat="52.0704354811" lon="-2.1103231609"><ele>31.86</ele><time>2017-06-14T11:01:03Z</time></trkpt><trkpt lat="52.0704286080" lon="-2.1103713568"><ele>31.86</ele><time>2017-06-14T11:01:11Z</time></trkpt><trkpt lat="52.0704194717" lon="-2.1104392502"><ele>31.86</ele><time>2017-06-14T11:01:15Z</time></trkpt><trkpt lat="52.0704203099" lon="-2.1106224786"><ele>31.38</ele><time>2017-06-14T11:01:27Z</time></trkpt><trkpt lat="52.0704495627" lon="-2.1106730215"><ele>31.38</ele><time>2017-06-14T11:01:31Z</time></trkpt><trkpt lat="52.0706419274" lon="-2.1107072197"><ele>31.86</ele><time>2017-06-14T11:01:50Z</time></trkpt><trkpt lat="52.0707957353" lon="-2.1106235683"><ele>31.86</ele><time>2017-06-14T11:02:09Z</time></trkpt><trkpt lat="52.0708053745" lon="-2.1106199641"><ele>31.38</ele><time>2017-06-14T11:02:10Z</time></trkpt><trkpt lat="52.0709775388" lon="-2.1105809882"><ele>31.86</ele><time>2017-06-14T11:02:27Z</time></trkpt><trkpt lat="52.0710754395" lon="-2.1105941478"><ele>31.86</ele><time>2017-06-14T11:02:40Z</time></trkpt><trkpt lat="52.0711973123" lon="-2.1106557548"><ele>32.34</ele><time>2017-06-14T11:02:54Z</time></trkpt><trkpt lat="52.0712808799" lon="-2.1107093990"><ele>31.86</ele><time>2017-06-14T11:03:02Z</time></trkpt><trkpt lat="52.0714079496" lon="-2.1107213851"><ele>31.86</ele><time>2017-06-14T11:03:17Z</time></trkpt><trkpt lat="52.0715257153" lon="-2.1107404958"><ele>32.34</ele><time>2017-06-14T11:03:32Z</time></trkpt><trkpt lat="52.0715865679" lon="-2.1107741911"><ele>32.34</ele><time>2017-06-14T11:03:39Z</time></trkpt><trkpt lat="52.0716492645" lon="-2.1107983310"><ele>33.30</ele><time>2017-06-14T11:03:46Z</time></trkpt><trkpt lat="52.0717599057" lon="-2.1108714212"><ele>32.34</ele><time>2017-06-14T11:04:02Z</time></trkpt><trkpt lat="52.0717889909" lon="-2.1108923759"><ele>32.82</ele><time>2017-06-14T11:04:06Z</time></trkpt><trkpt lat="52.0719308127" lon="-2.1109167673"><ele>32.82</ele><time>2017-06-14T11:04:21Z</time></trkpt><trkpt lat="52.0719408710" lon="-2.1109230537"><ele>33.30</ele><time>2017-06-14T11:04:40Z</time></trkpt><trkpt lat="52.0720358379" lon="-2.1109224670"><ele>33.30</ele><time>2017-06-14T11:04:55Z</time></trkpt><trkpt lat="52.0721364208" lon="-2.1109534800"><ele>32.34</ele><time>2017-06-14T11:05:04Z</time></trkpt><trkpt lat="52.0722776558" lon="-2.1109543182"><ele>32.82</ele><time>2017-06-14T11:05:18Z</time></trkpt><trkpt lat="52.0724102575" lon="-2.1110170148"><ele>34.26</ele><time>2017-06-14T11:05:33Z</time></trkpt><trkpt lat="52.0725620538" lon="-2.1110366285"><ele>34.26</ele><time>2017-06-14T11:05:48Z</time></trkpt><trkpt lat="52.0727133472" lon="-2.1110763587"><ele>33.30</ele><time>2017-06-14T11:06:02Z</time></trkpt><trkpt lat="52.0727891196" lon="-2.1111455932"><ele>33.78</ele><time>2017-06-14T11:06:11Z</time></trkpt><trkpt lat="52.0728173666" lon="-2.1113299951"><ele>34.26</ele><time>2017-06-14T11:06:27Z</time></trkpt><trkpt lat="52.0728099905" lon="-2.1113656182"><ele>33.78</ele><time>2017-06-14T11:06:36Z</time></trkpt><trkpt lat="52.0727985073" lon="-2.1114228666"><ele>33.30</ele><time>2017-06-14T11:06:40Z</time></trkpt><trkpt lat="52.0727557596" lon="-2.1116539557"><ele>33.30</ele><time>2017-06-14T11:06:55Z</time></trkpt><trkpt lat="52.0727527421" lon="-2.1116588172"><ele>32.34</ele><time>2017-06-14T11:06:57Z</time></trkpt><trkpt lat="52.0727450307" lon="-2.1117301472"><ele>32.82</ele><time>2017-06-14T11:07:02Z</time></trkpt><trkpt lat="52.0727270097" lon="-2.1118691191"><ele>32.34</ele><time>2017-06-14T11:07:12Z</time></trkpt><trkpt lat="52.0727205556" lon="-2.1119566262"><ele>32.34</ele><time>2017-06-14T11:07:16Z</time></trkpt><trkpt lat="52.0726982597" lon="-2.1120118629"><ele>31.86</ele><time>2017-06-14T11:07:20Z</time></trkpt><trkpt lat="52.0727006905" lon="-2.1121414471"><ele>30.90</ele><time>2017-06-14T11:07:29Z</time></trkpt><trkpt lat="52.0727073122" lon="-2.1121407766"><ele>31.86</ele><time>2017-06-14T11:07:30Z</time></trkpt><trkpt lat="52.0727658179" lon="-2.1121403575"><ele>32.34</ele><time>2017-06-14T11:07:44Z</time></trkpt><trkpt lat="52.0727366488" lon="-2.1121479850"><ele>30.90</ele><time>2017-06-14T11:07:58Z</time></trkpt><trkpt lat="52.0727182087" lon="-2.1121930797"><ele>31.86</ele><time>2017-06-14T11:08:01Z</time></trkpt><trkpt lat="52.0726939011" lon="-2.1122815926"><ele>31.38</ele><time>2017-06-14T11:08:05Z</time></trkpt><trkpt lat="52.0726612117" lon="-2.1124097519"><ele>31.38</ele><time>2017-06-14T11:08:12Z</time></trkpt><trkpt lat="52.0725479722" lon="-2.1126907133"><ele>30.42</ele><time>2017-06-14T11:08:27Z</time></trkpt><trkpt lat="52.0725290291" lon="-2.1127464529"><ele>30.90</ele><time>2017-06-14T11:08:31Z</time></trkpt><trkpt lat="52.0724967588" lon="-2.1128419228"><ele>29.94</ele><time>2017-06-14T11:08:36Z</time></trkpt><trkpt lat="52.0724499878" lon="-2.1129682381"><ele>29.94</ele><time>2017-06-14T11:08:42Z</time></trkpt><trkpt lat="52.0724312123" lon="-2.1129620355"><ele>28.02</ele><time>2017-06-14T11:08:58Z</time></trkpt><trkpt lat="52.0724272728" lon="-2.1129703335"><ele>29.46</ele><time>2017-06-14T11:09:08Z</time></trkpt><trkpt lat="52.0724196453" lon="-2.1129963174"><ele>29.46</ele><time>2017-06-14T11:09:10Z</time></trkpt><trkpt lat="52.0723480638" lon="-2.1132274903"><ele>28.50</ele><time>2017-06-14T11:09:25Z</time></trkpt><trkpt lat="52.0723359939" lon="-2.1132577490"><ele>29.46</ele><time>2017-06-14T11:09:28Z</time></trkpt><trkpt lat="52.0722971857" lon="-2.1133071184"><ele>28.50</ele><time>2017-06-14T11:09:33Z</time></trkpt><trkpt lat="52.0722647477" lon="-2.1133117285"><ele>28.02</ele><time>2017-06-14T11:09:36Z</time></trkpt><trkpt lat="52.0721836947" lon="-2.1133728325"><ele>28.02</ele><time>2017-06-14T11:09:46Z</time></trkpt><trkpt lat="52.0721172262" lon="-2.1133645345"><ele>28.50</ele><time>2017-06-14T11:09:53Z</time></trkpt><trkpt lat="52.0720432140" lon="-2.1133445017"><ele>28.98</ele><time>2017-06-14T11:10:00Z</time></trkpt><trkpt lat="52.0718490053" lon="-2.1133165900"><ele>28.50</ele><time>2017-06-14T11:10:17Z</time></trkpt><trkpt lat="52.0718270447" lon="-2.1133091301"><ele>28.50</ele><time>2017-06-14T11:10:19Z</time></trkpt><trkpt lat="52.0717989653" lon="-2.1132937074"><ele>29.46</ele><time>2017-06-14T11:10:21Z</time></trkpt><trkpt lat="52.0716733206" lon="-2.1132611856"><ele>28.50</ele><time>2017-06-14T11:10:31Z</time></trkpt><trkpt lat="52.0716081094" lon="-2.1132246405"><ele>29.46</ele><time>2017-06-14T11:10:37Z</time></trkpt><trkpt lat="52.0715855621" lon="-2.1132212039"><ele>28.50</ele><time>2017-06-14T11:10:39Z</time></trkpt><trkpt lat="52.0714791957" lon="-2.1131650452"><ele>28.02</ele><time>2017-06-14T11:10:55Z</time></trkpt><trkpt lat="52.0714102127" lon="-2.1133715753"><ele>28.50</ele><time>2017-06-14T11:11:08Z</time></trkpt><trkpt lat="52.0713358652" lon="-2.1136226133"><ele>28.50</ele><time>2017-06-14T11:11:20Z</time></trkpt><trkpt lat="52.0712472685" lon="-2.1138255391"><ele>28.02</ele><time>2017-06-14T11:11:34Z</time></trkpt><trkpt lat="52.0711155888" lon="-2.1140259504"><ele>27.53</ele><time>2017-06-14T11:11:48Z</time></trkpt><trkpt lat="52.0710390620" lon="-2.1141904034"><ele>26.09</ele><time>2017-06-14T11:12:03Z</time></trkpt><trkpt lat="52.0709958114" lon="-2.1143751405"><ele>27.05</ele><time>2017-06-14T11:12:17Z</time></trkpt><trkpt lat="52.0709600206" lon="-2.1144768130"><ele>26.09</ele><time>2017-06-14T11:12:35Z</time></trkpt><trkpt lat="52.0709483698" lon="-2.1144905593"><ele>26.09</ele><time>2017-06-14T11:12:37Z</time></trkpt><trkpt lat="52.0709337015" lon="-2.1145503223"><ele>26.09</ele><time>2017-06-14T11:12:41Z</time></trkpt><trkpt lat="52.0708440989" lon="-2.1148202196"><ele>25.13</ele><time>2017-06-14T11:12:54Z</time></trkpt><trkpt lat="52.0708161872" lon="-2.1150562540"><ele>24.65</ele><time>2017-06-14T11:13:05Z</time></trkpt><trkpt lat="52.0707873534" lon="-2.1150576789"><ele>23.69</ele><time>2017-06-14T11:13:08Z</time></trkpt><trkpt lat="52.0706722699" lon="-2.1150315274"><ele>24.65</ele><time>2017-06-14T11:13:17Z</time></trkpt><trkpt lat="52.0706399996" lon="-2.1150339581"><ele>23.69</ele><time>2017-06-14T11:13:19Z</time></trkpt><trkpt lat="52.0705391653" lon="-2.1149752848"><ele>24.17</ele><time>2017-06-14T11:13:27Z</time></trkpt><trkpt lat="52.0705075655" lon="-2.1149696689"><ele>25.13</ele><time>2017-06-14T11:13:29Z</time></trkpt><trkpt lat="52.0704348944" lon="-2.1149316151"><ele>23.21</ele><time>2017-06-14T11:13:35Z</time></trkpt><trkpt lat="52.0703680906" lon="-2.1148977522"><ele>24.17</ele><time>2017-06-14T11:13:41Z</time></trkpt><trkpt lat="52.0702190604" lon="-2.1148306970"><ele>23.69</ele><time>2017-06-14T11:13:54Z</time></trkpt><trkpt lat="52.0700171404" lon="-2.1147787292"><ele>23.21</ele><time>2017-06-14T11:14:09Z</time></trkpt><trkpt lat="52.0700043160" lon="-2.1147799026"><ele>23.21</ele><time>2017-06-14T11:14:10Z</time></trkpt><trkpt lat="52.0698763244" lon="-2.1147384960"><ele>22.25</ele><time>2017-06-14T11:14:23Z</time></trkpt><trkpt lat="52.0698546991" lon="-2.1147282701"><ele>22.73</ele><time>2017-06-14T11:14:25Z</time></trkpt><trkpt lat="52.0698163938" lon="-2.1147198044"><ele>23.69</ele><time>2017-06-14T11:14:29Z</time></trkpt><trkpt lat="52.0697273780" lon="-2.1147437766"><ele>23.21</ele><time>2017-06-14T11:14:41Z</time></trkpt><trkpt lat="52.0697272103" lon="-2.1147421841"><ele>23.69</ele><time>2017-06-14T11:14:57Z</time></trkpt><trkpt lat="52.0697226003" lon="-2.1147408430"><ele>22.73</ele><time>2017-06-14T11:15:15Z</time></trkpt><trkpt lat="52.0697223488" lon="-2.1147410106"><ele>23.21</ele><time>2017-06-14T11:15:16Z</time></trkpt></trkseg></trk></gpx>